AEA041 LEMD-SAEZ
Flight info
| Callsign | AEA041 |
|---|---|
| Flight time | N/A |
| Altitude | 35000 |
| Route | CCS/N0490F370 DCT KOMUT/M085F360 DCT 3630N02000W/M085F380 33N030W 24N040W DCT ROHPL/N0487F400 DCT 15N046W 10N048W DCT ARNAM DCT MCP DCT KOKDO DCT VALAS UZ91 UKAGA DCT UBTAS DCT EGIMO DCT VUMUB DCT FOZ UL324 IGU UP779 DOKBA UL324 KUKEN |
| Aircraft | B788/H-SDE1E2E3FGHIJ2J3J4J5M1RWXY/LB1D1 |
Departure
| Time | 2026-05-07 00:02 |
|---|---|
| Airport | Adolfo Suárez Madrid–Barajas Airport (LEMD) |
Arrival
| Time | N/A |
|---|---|
| Airport | Ezeiza International Airport - Ministro Pistarini (SAEZ) |
| Time | Latitude | Longitude | Altitude | Speed | Heading |
|---|---|---|---|---|---|
| 2026-05-06 23:37 | 40.49408 | -3.56886 | 1981 ft | 0 kts | 90° |
| 2026-05-06 23:51 | 40.49408 | -3.56904 | 1982 ft | 4 kts | 89° |
| 2026-05-06 23:51 | 40.49408 | -3.56939 | 1979 ft | 4 kts | 89° |
| 2026-05-06 23:52 | 40.49408 | -3.56970 | 1980 ft | 4 kts | 96° |
| 2026-05-06 23:52 | 40.49417 | -3.56992 | 1982 ft | 4 kts | 146° |
| 2026-05-06 23:52 | 40.49440 | -3.57002 | 1980 ft | 4 kts | 174° |
| 2026-05-06 23:52 | 40.49453 | -3.57003 | 1982 ft | 0 kts | 180° |
| 2026-05-06 23:56 | 40.49449 | -3.57003 | 1980 ft | 1 kts | 180° |
| 2026-05-06 23:57 | 40.49441 | -3.57003 | 1983 ft | 2 kts | 180° |
| 2026-05-06 23:57 | 40.49425 | -3.57003 | 1981 ft | 3 kts | 179° |
| 2026-05-06 23:57 | 40.49401 | -3.57002 | 1981 ft | 4 kts | 179° |
| 2026-05-06 23:57 | 40.49373 | -3.57002 | 1981 ft | 4 kts | 180° |
| 2026-05-06 23:58 | 40.49343 | -3.57002 | 1981 ft | 4 kts | 184° |
| 2026-05-06 23:58 | 40.49328 | -3.57007 | 1981 ft | 1 kts | 199° |
| 2026-05-06 23:58 | 40.49317 | -3.57012 | 1983 ft | 2 kts | 203° |
| 2026-05-06 23:58 | 40.49302 | -3.57026 | 1983 ft | 4 kts | 225° |
| 2026-05-06 23:59 | 40.49289 | -3.57064 | 1984 ft | 7 kts | 259° |
| 2026-05-06 23:59 | 40.49288 | -3.57154 | 1985 ft | 12 kts | 262° |
| 2026-05-06 23:59 | 40.49246 | -3.57221 | 1986 ft | 9 kts | 192° |
| 2026-05-06 23:59 | 40.49193 | -3.57264 | 1989 ft | 9 kts | 247° |
| 2026-05-07 00:00 | 40.49183 | -3.57375 | 1990 ft | 16 kts | 276° |
| 2026-05-07 00:00 | 40.49261 | -3.57453 | 1991 ft | 17 kts | 0° |
| 2026-05-07 00:00 | 40.49339 | -3.57451 | 1989 ft | 0 kts | 359° |
| 2026-05-07 00:01 | 40.49342 | -3.57452 | 1989 ft | 3 kts | 359° |
| 2026-05-07 00:01 | 40.49493 | -3.57452 | 1992 ft | 51 kts | 360° |
| 2026-05-07 00:01 | 40.50067 | -3.57456 | 1993 ft | 113 kts | 359° |
| 2026-05-07 00:01 | 40.51014 | -3.57464 | 2000 ft | 166 kts | 359° |
| 2026-05-07 00:02 | 40.52229 | -3.57468 | 2641 ft | 169 kts | 1° |
| 2026-05-07 00:02 | 40.53361 | -3.57410 | 3389 ft | 170 kts | 4° |
| 2026-05-07 00:02 | 40.54623 | -3.57494 | 3656 ft | 190 kts | 360° |
| 2026-05-07 00:02 | 40.55508 | -3.57665 | 3983 ft | 194 kts | 346° |
| 2026-05-07 00:03 | 40.56625 | -3.58619 | 4552 ft | 203 kts | 312° |
| 2026-05-07 00:03 | 40.57585 | -3.60802 | 5071 ft | 218 kts | 308° |
| 2026-05-07 00:03 | 40.58346 | -3.61769 | 5188 ft | 233 kts | 322° |
| 2026-05-07 00:03 | 40.59661 | -3.63059 | 5803 ft | 235 kts | 324° |
| 2026-05-07 00:04 | 40.60945 | -3.64412 | 6461 ft | 238 kts | 320° |
| 2026-05-07 00:04 | 40.62207 | -3.65835 | 7069 ft | 240 kts | 319° |
| 2026-05-07 00:04 | 40.63438 | -3.67338 | 7661 ft | 243 kts | 307° |
| 2026-05-07 00:04 | 40.64019 | -3.69376 | 8075 ft | 250 kts | 275° |
| 2026-05-07 00:05 | 40.64036 | -3.71758 | 8153 ft | 275 kts | 266° |
| 2026-05-07 00:05 | 40.63947 | -3.74364 | 8592 ft | 285 kts | 266° |
| 2026-05-07 00:05 | 40.63893 | -3.76973 | 9361 ft | 285 kts | 266° |
| 2026-05-07 00:05 | 40.63867 | -3.79596 | 10020 ft | 287 kts | 266° |
| 2026-05-07 00:06 | 40.63830 | -3.82292 | 10214 ft | 306 kts | 266° |
| 2026-05-07 00:06 | 40.63778 | -3.85214 | 10249 ft | 330 kts | 266° |
| 2026-05-07 00:06 | 40.63726 | -3.88334 | 10371 ft | 349 kts | 266° |
| 2026-05-07 00:06 | 40.63680 | -3.91502 | 11097 ft | 348 kts | 266° |
| 2026-05-07 00:07 | 40.63629 | -3.94695 | 11706 ft | 350 kts | 266° |
| 2026-05-07 00:07 | 40.63573 | -3.97894 | 12318 ft | 352 kts | 266° |
| 2026-05-07 00:07 | 40.63517 | -4.01139 | 12938 ft | 354 kts | 266° |
| 2026-05-07 00:07 | 40.63459 | -4.04410 | 13542 ft | 356 kts | 267° |
| 2026-05-07 00:08 | 40.63402 | -4.07639 | 14081 ft | 358 kts | 267° |
| 2026-05-07 00:08 | 40.63344 | -4.10923 | 14596 ft | 360 kts | 267° |
| 2026-05-07 00:08 | 40.63284 | -4.14226 | 15103 ft | 362 kts | 267° |
| 2026-05-07 00:08 | 40.63220 | -4.17588 | 15597 ft | 365 kts | 267° |
| 2026-05-07 00:09 | 40.63159 | -4.20894 | 16108 ft | 366 kts | 267° |
| 2026-05-07 00:09 | 40.63095 | -4.24251 | 16588 ft | 369 kts | 267° |
| 2026-05-07 00:09 | 40.63029 | -4.27643 | 17088 ft | 371 kts | 267° |
| 2026-05-07 00:09 | 40.62962 | -4.31056 | 17566 ft | 374 kts | 267° |
| 2026-05-07 00:10 | 40.62893 | -4.34492 | 18046 ft | 376 kts | 267° |
| 2026-05-07 00:10 | 40.62822 | -4.37947 | 18474 ft | 378 kts | 267° |
| 2026-05-07 00:10 | 40.62751 | -4.41426 | 18880 ft | 381 kts | 267° |
| 2026-05-07 00:10 | 40.62680 | -4.44831 | 19252 ft | 383 kts | 266° |
| 2026-05-07 00:11 | 40.62603 | -4.48443 | 19655 ft | 385 kts | 266° |
| 2026-05-07 00:11 | 40.62476 | -4.51982 | 20031 ft | 386 kts | 260° |
| 2026-05-07 00:11 | 40.61799 | -4.55336 | 20400 ft | 386 kts | 246° |
| 2026-05-07 00:11 | 40.60490 | -4.58457 | 20785 ft | 386 kts | 233° |
| 2026-05-07 00:12 | 40.58885 | -4.61309 | 21097 ft | 389 kts | 233° |
| 2026-05-07 00:12 | 40.57278 | -4.64136 | 21489 ft | 390 kts | 232° |
| 2026-05-07 00:12 | 40.55650 | -4.66990 | 21856 ft | 392 kts | 232° |
| 2026-05-07 00:12 | 40.54061 | -4.69784 | 22163 ft | 394 kts | 232° |
| 2026-05-07 00:13 | 40.52414 | -4.72685 | 22511 ft | 396 kts | 232° |
| 2026-05-07 00:13 | 40.50755 | -4.75598 | 22827 ft | 398 kts | 232° |
| 2026-05-07 00:13 | 40.49092 | -4.78511 | 23167 ft | 399 kts | 232° |
| 2026-05-07 00:13 | 40.47423 | -4.81435 | 23480 ft | 401 kts | 232° |
| 2026-05-07 00:14 | 40.45740 | -4.84383 | 23764 ft | 402 kts | 232° |
| 2026-05-07 00:14 | 40.44059 | -4.87323 | 24052 ft | 404 kts | 232° |
| 2026-05-07 00:14 | 40.42366 | -4.90280 | 24337 ft | 404 kts | 232° |
| 2026-05-07 00:14 | 40.40675 | -4.93231 | 24578 ft | 406 kts | 232° |
| 2026-05-07 00:15 | 40.38998 | -4.96155 | 24849 ft | 407 kts | 232° |
| 2026-05-07 00:15 | 40.37297 | -4.99117 | 25110 ft | 408 kts | 232° |
| 2026-05-07 00:15 | 40.35564 | -5.02133 | 25379 ft | 409 kts | 232° |
| 2026-05-07 00:15 | 40.33873 | -5.05073 | 25626 ft | 410 kts | 232° |
| 2026-05-07 00:16 | 40.32154 | -5.08060 | 25888 ft | 411 kts | 232° |
| 2026-05-07 00:16 | 40.30433 | -5.11047 | 26152 ft | 412 kts | 232° |
| 2026-05-07 00:16 | 40.28700 | -5.14051 | 26389 ft | 413 kts | 232° |
| 2026-05-07 00:16 | 40.26965 | -5.17055 | 26659 ft | 414 kts | 232° |
| 2026-05-07 00:17 | 40.25220 | -5.20074 | 26922 ft | 415 kts | 232° |
| 2026-05-07 00:17 | 40.23493 | -5.23060 | 27198 ft | 416 kts | 232° |
| 2026-05-07 00:17 | 40.21721 | -5.26121 | 27456 ft | 418 kts | 232° |
| 2026-05-07 00:17 | 40.19960 | -5.29158 | 27721 ft | 419 kts | 232° |
| 2026-05-07 00:18 | 40.18199 | -5.32193 | 27990 ft | 420 kts | 232° |
| 2026-05-07 00:18 | 40.16421 | -5.35256 | 28255 ft | 422 kts | 232° |
| 2026-05-07 00:18 | 40.14664 | -5.38278 | 28501 ft | 423 kts | 232° |
| 2026-05-07 00:18 | 40.12888 | -5.41330 | 28759 ft | 424 kts | 232° |
| 2026-05-07 00:19 | 40.11093 | -5.44411 | 29024 ft | 425 kts | 232° |
| 2026-05-07 00:19 | 40.09299 | -5.47489 | 29275 ft | 427 kts | 232° |
| 2026-05-07 00:19 | 40.07492 | -5.50585 | 29553 ft | 428 kts | 232° |
| 2026-05-07 00:19 | 40.05693 | -5.53665 | 29806 ft | 429 kts | 232° |
| 2026-05-07 00:20 | 40.03870 | -5.56783 | 30051 ft | 430 kts | 231° |
| 2026-05-07 00:20 | 40.02069 | -5.59860 | 30245 ft | 432 kts | 231° |
| 2026-05-07 00:20 | 40.00215 | -5.63024 | 30460 ft | 434 kts | 231° |
| 2026-05-07 00:20 | 39.98403 | -5.66113 | 30659 ft | 435 kts | 231° |
| 2026-05-07 00:21 | 39.96537 | -5.69293 | 30865 ft | 437 kts | 231° |
| 2026-05-07 00:21 | 39.94712 | -5.72398 | 31066 ft | 438 kts | 231° |
| 2026-05-07 00:21 | 39.92855 | -5.75554 | 31274 ft | 440 kts | 231° |
| 2026-05-07 00:21 | 39.90983 | -5.78734 | 31468 ft | 441 kts | 231° |
| 2026-05-07 00:22 | 39.89115 | -5.81903 | 31652 ft | 443 kts | 231° |
| 2026-05-07 00:22 | 39.87232 | -5.85094 | 31859 ft | 445 kts | 231° |
| 2026-05-07 00:22 | 39.85339 | -5.88299 | 32040 ft | 446 kts | 231° |
| 2026-05-07 00:22 | 39.83439 | -5.91514 | 32224 ft | 448 kts | 231° |
| 2026-05-07 00:23 | 39.81543 | -5.94717 | 32431 ft | 450 kts | 231° |
| 2026-05-07 00:23 | 39.79623 | -5.97957 | 32617 ft | 452 kts | 231° |
| 2026-05-07 00:23 | 39.77692 | -6.01213 | 32823 ft | 453 kts | 231° |
| 2026-05-07 00:23 | 39.75775 | -6.04444 | 33102 ft | 452 kts | 232° |
| 2026-05-07 00:24 | 39.73880 | -6.07632 | 33358 ft | 452 kts | 232° |
| 2026-05-07 00:24 | 39.71924 | -6.10919 | 33628 ft | 452 kts | 232° |
| 2026-05-07 00:24 | 39.70031 | -6.14100 | 33868 ft | 452 kts | 232° |
| 2026-05-07 00:24 | 39.68096 | -6.17344 | 34089 ft | 452 kts | 232° |
| 2026-05-07 00:25 | 39.66172 | -6.20570 | 34307 ft | 452 kts | 232° |
| 2026-05-07 00:25 | 39.64243 | -6.23799 | 34514 ft | 452 kts | 232° |
| 2026-05-07 00:25 | 39.62311 | -6.27031 | 34721 ft | 453 kts | 232° |
| 2026-05-07 00:25 | 39.60380 | -6.30257 | 34929 ft | 453 kts | 232° |
| 2026-05-07 00:26 | 39.58455 | -6.33470 | 35134 ft | 453 kts | 232° |
| 2026-05-07 00:26 | 39.56514 | -6.36707 | 35340 ft | 453 kts | 232° |
| 2026-05-07 00:26 | 39.54609 | -6.39945 | 35533 ft | 454 kts | 237° |
| 2026-05-07 00:26 | 39.53058 | -6.43511 | 35741 ft | 454 kts | 246° |
| 2026-05-07 00:27 | 39.51988 | -6.47359 | 35946 ft | 456 kts | 255° |
| 2026-05-07 00:27 | 39.51357 | -6.51395 | 36108 ft | 458 kts | 258° |
| 2026-05-07 00:27 | 39.50794 | -6.55405 | 36292 ft | 458 kts | 258° |
| 2026-05-07 00:27 | 39.50227 | -6.59471 | 36502 ft | 458 kts | 258° |
| 2026-05-07 00:28 | 39.49662 | -6.63537 | 36700 ft | 459 kts | 258° |
| 2026-05-07 00:28 | 39.49095 | -6.67590 | 36906 ft | 459 kts | 258° |
| 2026-05-07 00:28 | 39.48520 | -6.71670 | 37119 ft | 459 kts | 258° |
| 2026-05-07 00:28 | 39.47948 | -6.75728 | 37315 ft | 459 kts | 258° |
| 2026-05-07 00:29 | 39.47376 | -6.79786 | 37505 ft | 459 kts | 258° |
| 2026-05-07 00:29 | 39.46800 | -6.83853 | 37656 ft | 460 kts | 258° |
| 2026-05-07 00:30 | 39.45051 | -6.96134 | 37901 ft | 465 kts | 258° |
| 2026-05-07 00:30 | 39.44472 | -7.00186 | 37900 ft | 464 kts | 258° |
| 2026-05-07 00:30 | 39.43286 | -7.08443 | 37901 ft | 462 kts | 258° |
| 2026-05-07 00:31 | 39.42113 | -7.16563 | 37899 ft | 461 kts | 258° |
| 2026-05-07 00:31 | 39.40931 | -7.24712 | 37908 ft | 461 kts | 258° |
| 2026-05-07 00:32 | 39.39744 | -7.32842 | 37907 ft | 461 kts | 258° |
| 2026-05-07 00:32 | 39.38548 | -7.40999 | 37910 ft | 461 kts | 258° |
| 2026-05-07 00:33 | 39.37356 | -7.49092 | 37910 ft | 461 kts | 258° |
| 2026-05-07 00:33 | 39.36150 | -7.57229 | 37919 ft | 461 kts | 258° |
| 2026-05-07 00:34 | 39.34937 | -7.65375 | 37918 ft | 461 kts | 258° |
| 2026-05-07 00:34 | 39.33720 | -7.73507 | 37928 ft | 461 kts | 258° |
| 2026-05-07 00:35 | 39.32498 | -7.81639 | 37928 ft | 461 kts | 258° |
| 2026-05-07 00:35 | 39.31273 | -7.89744 | 37926 ft | 461 kts | 258° |
| 2026-05-07 00:36 | 39.30038 | -7.97872 | 37933 ft | 462 kts | 258° |
| 2026-05-07 00:36 | 39.28796 | -8.06011 | 37938 ft | 462 kts | 258° |
| 2026-05-07 00:37 | 39.27545 | -8.14167 | 37939 ft | 462 kts | 258° |
| 2026-05-07 00:37 | 39.26300 | -8.22251 | 37942 ft | 462 kts | 258° |
| 2026-05-07 00:38 | 39.25036 | -8.30406 | 37943 ft | 463 kts | 258° |
| 2026-05-07 00:38 | 39.23771 | -8.38538 | 37948 ft | 463 kts | 258° |
| 2026-05-07 00:39 | 39.22493 | -8.46710 | 37946 ft | 464 kts | 258° |
| 2026-05-07 00:39 | 39.21212 | -8.54861 | 37949 ft | 464 kts | 258° |
| 2026-05-07 00:40 | 39.19923 | -8.63025 | 37952 ft | 465 kts | 258° |
| 2026-05-07 00:40 | 39.18627 | -8.71199 | 37950 ft | 465 kts | 258° |
| 2026-05-07 00:41 | 39.17324 | -8.79369 | 37954 ft | 466 kts | 258° |
| 2026-05-07 00:41 | 39.16023 | -8.87493 | 37956 ft | 465 kts | 258° |
| 2026-05-07 00:42 | 39.14707 | -8.95669 | 37958 ft | 465 kts | 258° |
| 2026-05-07 00:42 | 39.13387 | -9.03834 | 37961 ft | 466 kts | 258° |
| 2026-05-07 00:43 | 39.12061 | -9.12002 | 37963 ft | 465 kts | 258° |
| 2026-05-07 00:43 | 39.10729 | -9.20165 | 37961 ft | 465 kts | 258° |
| 2026-05-07 00:44 | 39.09393 | -9.28311 | 37961 ft | 465 kts | 258° |
| 2026-05-07 00:44 | 39.08059 | -9.36410 | 37965 ft | 466 kts | 258° |
| 2026-05-07 00:45 | 39.06711 | -9.44558 | 37961 ft | 466 kts | 258° |
| 2026-05-07 00:45 | 39.05354 | -9.52721 | 37962 ft | 466 kts | 258° |
| 2026-05-07 00:46 | 39.03987 | -9.60907 | 37962 ft | 466 kts | 258° |
| 2026-05-07 00:46 | 39.02618 | -9.69068 | 37962 ft | 467 kts | 259° |
| 2026-05-07 00:47 | 39.01254 | -9.77160 | 37962 ft | 467 kts | 259° |
| 2026-05-07 00:47 | 38.99875 | -9.85313 | 37962 ft | 466 kts | 259° |
| 2026-05-07 00:48 | 38.98488 | -9.93464 | 37967 ft | 466 kts | 259° |
| 2026-05-07 00:48 | 38.97097 | -10.01610 | 37967 ft | 466 kts | 259° |
| 2026-05-07 00:49 | 38.95700 | -10.09758 | 37973 ft | 466 kts | 259° |
| 2026-05-07 00:49 | 38.94306 | -10.17845 | 37980 ft | 466 kts | 259° |
| 2026-05-07 00:50 | 38.92903 | -10.25950 | 37979 ft | 465 kts | 259° |
| 2026-05-07 00:50 | 38.91493 | -10.34062 | 37988 ft | 465 kts | 259° |
| 2026-05-07 00:51 | 38.90081 | -10.42151 | 37984 ft | 464 kts | 259° |
| 2026-05-07 00:51 | 38.88662 | -10.50241 | 37987 ft | 464 kts | 259° |
| 2026-05-07 00:52 | 38.87479 | -10.56963 | 37987 ft | 464 kts | 259° |
| 2026-05-07 00:52 | 38.85817 | -10.66364 | 37995 ft | 464 kts | 259° |
| 2026-05-07 00:53 | 38.84617 | -10.73119 | 37996 ft | 464 kts | 259° |
| 2026-05-07 00:53 | 38.83185 | -10.81154 | 38000 ft | 464 kts | 259° |
| 2026-05-07 00:54 | 38.81736 | -10.89250 | 38000 ft | 465 kts | 259° |
| 2026-05-07 00:54 | 38.80283 | -10.97329 | 38001 ft | 465 kts | 259° |
| 2026-05-07 00:55 | 38.78824 | -11.05409 | 38004 ft | 465 kts | 259° |
| 2026-05-07 00:55 | 38.77360 | -11.13487 | 38008 ft | 465 kts | 259° |
| 2026-05-07 00:56 | 38.75891 | -11.21555 | 38007 ft | 466 kts | 259° |
| 2026-05-07 00:56 | 38.74414 | -11.29634 | 38010 ft | 466 kts | 259° |
| 2026-05-07 00:57 | 38.72930 | -11.37713 | 38010 ft | 466 kts | 259° |
| 2026-05-07 00:57 | 38.71444 | -11.45775 | 38009 ft | 465 kts | 260° |
| 2026-05-07 00:58 | 38.69962 | -11.53780 | 38009 ft | 465 kts | 260° |
| 2026-05-07 00:58 | 38.68467 | -11.61826 | 38017 ft | 464 kts | 260° |
| 2026-05-07 00:59 | 38.66212 | -11.73893 | 38016 ft | 464 kts | 260° |
| 2026-05-07 01:00 | 38.64699 | -11.81951 | 38014 ft | 465 kts | 260° |
| 2026-05-07 01:00 | 38.63185 | -11.89982 | 38018 ft | 464 kts | 260° |
| 2026-05-07 01:01 | 38.61666 | -11.98002 | 38019 ft | 463 kts | 261° |
| 2026-05-07 01:01 | 38.60145 | -12.06008 | 38025 ft | 463 kts | 261° |
| 2026-05-07 01:02 | 38.58619 | -12.14000 | 38021 ft | 462 kts | 261° |
| 2026-05-07 01:02 | 38.57101 | -12.21925 | 38026 ft | 462 kts | 261° |
| 2026-05-07 01:03 | 38.55567 | -12.29898 | 38030 ft | 462 kts | 261° |
| 2026-05-07 01:03 | 38.54030 | -12.37856 | 38023 ft | 462 kts | 261° |
| 2026-05-07 01:04 | 38.52485 | -12.45826 | 38050 ft | 462 kts | 261° |
| 2026-05-07 01:04 | 38.50934 | -12.53793 | 38021 ft | 462 kts | 261° |
| 2026-05-07 01:05 | 38.49379 | -12.61750 | 38030 ft | 460 kts | 261° |
| 2026-05-07 01:05 | 38.47840 | -12.69596 | 38025 ft | 457 kts | 261° |
| 2026-05-07 01:06 | 38.46318 | -12.77325 | 38034 ft | 455 kts | 261° |
| 2026-05-07 01:06 | 38.44771 | -12.85153 | 38024 ft | 453 kts | 261° |
| 2026-05-07 01:07 | 38.43231 | -12.92914 | 38026 ft | 451 kts | 261° |
| 2026-05-07 01:07 | 38.41687 | -13.00667 | 38040 ft | 450 kts | 261° |
| 2026-05-07 01:08 | 38.40146 | -13.08381 | 38046 ft | 449 kts | 261° |
| 2026-05-07 01:08 | 38.38601 | -13.16081 | 38042 ft | 448 kts | 261° |
| 2026-05-07 01:09 | 38.37054 | -13.23762 | 38045 ft | 446 kts | 262° |
| 2026-05-07 01:09 | 38.35517 | -13.31370 | 38038 ft | 445 kts | 262° |
| 2026-05-07 01:10 | 38.33971 | -13.38993 | 38039 ft | 444 kts | 262° |
| 2026-05-07 01:10 | 38.32421 | -13.46608 | 38039 ft | 444 kts | 262° |
| 2026-05-07 01:11 | 38.30857 | -13.54262 | 38042 ft | 443 kts | 262° |
| 2026-05-07 01:11 | 38.29326 | -13.61730 | 38043 ft | 443 kts | 262° |
| 2026-05-07 01:12 | 38.27749 | -13.69394 | 38037 ft | 442 kts | 262° |
| 2026-05-07 01:12 | 38.26189 | -13.76947 | 38043 ft | 441 kts | 262° |
| 2026-05-07 01:13 | 38.24624 | -13.84502 | 38045 ft | 442 kts | 262° |
| 2026-05-07 01:13 | 38.23052 | -13.92058 | 38040 ft | 442 kts | 262° |
| 2026-05-07 01:14 | 38.21485 | -13.99570 | 38057 ft | 442 kts | 262° |
| 2026-05-07 01:14 | 38.19904 | -14.07116 | 38050 ft | 442 kts | 261° |
| 2026-05-07 01:15 | 38.18316 | -14.14673 | 38051 ft | 442 kts | 261° |
| 2026-05-07 01:15 | 38.16726 | -14.22214 | 38048 ft | 441 kts | 261° |
| 2026-05-07 01:16 | 38.15135 | -14.29732 | 38049 ft | 441 kts | 261° |
| 2026-05-07 01:16 | 38.13537 | -14.37258 | 38050 ft | 441 kts | 261° |
| 2026-05-07 01:17 | 38.11937 | -14.44769 | 38048 ft | 440 kts | 261° |
| 2026-05-07 01:17 | 38.10332 | -14.52276 | 38052 ft | 440 kts | 261° |
| 2026-05-07 01:18 | 38.08739 | -14.59702 | 38049 ft | 439 kts | 261° |
| 2026-05-07 01:18 | 38.07128 | -14.67186 | 38058 ft | 439 kts | 261° |
| 2026-05-07 01:19 | 38.05513 | -14.74664 | 38051 ft | 439 kts | 261° |
| 2026-05-07 01:19 | 38.03896 | -14.82123 | 38055 ft | 438 kts | 261° |
| 2026-05-07 01:20 | 38.02281 | -14.89551 | 38057 ft | 438 kts | 261° |
| 2026-05-07 01:20 | 38.00656 | -14.97002 | 38063 ft | 438 kts | 261° |
| 2026-05-07 01:21 | 37.98793 | -15.04384 | 38071 ft | 441 kts | 257° |
| 2026-05-07 01:21 | 37.96794 | -15.11721 | 38067 ft | 440 kts | 257° |
| 2026-05-07 01:22 | 37.94777 | -15.19040 | 38062 ft | 439 kts | 257° |
| 2026-05-07 01:22 | 37.92767 | -15.26337 | 38063 ft | 438 kts | 257° |
| 2026-05-07 01:23 | 37.90751 | -15.33631 | 38062 ft | 438 kts | 257° |
| 2026-05-07 01:23 | 37.88749 | -15.40854 | 38058 ft | 437 kts | 257° |
| 2026-05-07 01:24 | 37.86734 | -15.48104 | 38065 ft | 436 kts | 257° |
| 2026-05-07 01:24 | 37.84715 | -15.55350 | 38059 ft | 436 kts | 257° |
| 2026-05-07 01:25 | 37.82692 | -15.62589 | 38064 ft | 435 kts | 257° |
| 2026-05-07 01:25 | 37.80685 | -15.69748 | 38062 ft | 434 kts | 256° |
| 2026-05-07 01:26 | 37.78666 | -15.76938 | 38066 ft | 434 kts | 256° |
| 2026-05-07 01:26 | 37.76640 | -15.84125 | 38058 ft | 434 kts | 256° |
| 2026-05-07 01:27 | 37.74612 | -15.91305 | 38066 ft | 433 kts | 256° |
| 2026-05-07 01:27 | 37.72584 | -15.98464 | 38061 ft | 433 kts | 256° |
| 2026-05-07 01:28 | 37.70552 | -16.05618 | 38062 ft | 433 kts | 256° |
| 2026-05-07 01:28 | 37.68517 | -16.12765 | 38063 ft | 432 kts | 256° |
| 2026-05-07 01:29 | 37.66478 | -16.19906 | 38066 ft | 431 kts | 256° |
| 2026-05-07 01:29 | 37.64453 | -16.26979 | 38064 ft | 431 kts | 256° |
| 2026-05-07 01:30 | 37.62411 | -16.34091 | 38068 ft | 431 kts | 256° |
| 2026-05-07 01:30 | 37.60370 | -16.41185 | 38064 ft | 430 kts | 255° |
| 2026-05-07 01:31 | 37.58324 | -16.48272 | 38070 ft | 430 kts | 255° |
| 2026-05-07 01:31 | 37.56275 | -16.55357 | 38063 ft | 429 kts | 255° |
| 2026-05-07 01:32 | 37.54223 | -16.62430 | 38067 ft | 429 kts | 255° |
| 2026-05-07 01:32 | 37.52173 | -16.69480 | 38085 ft | 428 kts | 255° |
| 2026-05-07 01:33 | 37.50119 | -16.76523 | 38077 ft | 428 kts | 255° |
| 2026-05-07 01:33 | 37.48075 | -16.83514 | 38076 ft | 428 kts | 255° |
| 2026-05-07 01:34 | 37.46012 | -16.90551 | 38072 ft | 428 kts | 255° |
| 2026-05-07 01:34 | 37.43946 | -16.97582 | 38068 ft | 428 kts | 255° |
| 2026-05-07 01:35 | 37.41875 | -17.04613 | 38071 ft | 428 kts | 254° |
| 2026-05-07 01:35 | 37.39796 | -17.11651 | 38070 ft | 428 kts | 254° |
| 2026-05-07 01:36 | 37.37719 | -17.18666 | 38075 ft | 429 kts | 254° |
| 2026-05-07 01:36 | 37.35636 | -17.25682 | 38074 ft | 428 kts | 254° |
| 2026-05-07 01:37 | 37.33546 | -17.32705 | 38077 ft | 428 kts | 254° |
| 2026-05-07 01:37 | 37.31469 | -17.39664 | 38073 ft | 428 kts | 254° |
| 2026-05-07 01:38 | 37.29379 | -17.46654 | 38073 ft | 427 kts | 253° |
| 2026-05-07 01:38 | 37.27281 | -17.53649 | 38074 ft | 427 kts | 253° |
| 2026-05-07 01:39 | 37.25176 | -17.60649 | 38084 ft | 428 kts | 253° |
| 2026-05-07 01:39 | 37.23072 | -17.67632 | 38079 ft | 429 kts | 253° |
| 2026-05-07 01:40 | 37.21312 | -17.73456 | 38076 ft | 428 kts | 253° |
| 2026-05-07 01:40 | 37.19196 | -17.80446 | 38078 ft | 428 kts | 253° |
| 2026-05-07 01:41 | 37.16733 | -17.88556 | 38079 ft | 428 kts | 253° |
| 2026-05-07 01:41 | 37.14955 | -17.94399 | 38084 ft | 428 kts | 253° |
| 2026-05-07 01:42 | 37.12842 | -18.01324 | 38079 ft | 428 kts | 253° |
| 2026-05-07 01:42 | 37.10716 | -18.08277 | 38084 ft | 427 kts | 252° |
| 2026-05-07 01:43 | 37.08581 | -18.15242 | 38083 ft | 427 kts | 252° |
| 2026-05-07 01:43 | 37.06448 | -18.22182 | 38085 ft | 427 kts | 252° |
| 2026-05-07 01:44 | 37.04325 | -18.29075 | 38081 ft | 427 kts | 252° |
| 2026-05-07 01:44 | 37.02187 | -18.35997 | 38082 ft | 426 kts | 252° |
| 2026-05-07 01:45 | 37.00049 | -18.42902 | 38083 ft | 426 kts | 252° |
| 2026-05-07 01:45 | 36.97899 | -18.49832 | 38085 ft | 426 kts | 252° |
| 2026-05-07 01:46 | 36.95757 | -18.56716 | 38090 ft | 426 kts | 252° |
| 2026-05-07 01:46 | 36.93604 | -18.63618 | 38086 ft | 426 kts | 252° |
| 2026-05-07 01:47 | 36.91442 | -18.70535 | 38086 ft | 426 kts | 252° |
| 2026-05-07 01:47 | 36.89285 | -18.77420 | 38090 ft | 426 kts | 252° |
| 2026-05-07 01:48 | 36.87116 | -18.84324 | 38092 ft | 426 kts | 252° |
| 2026-05-07 01:48 | 36.84953 | -18.91193 | 38087 ft | 425 kts | 252° |
| 2026-05-07 01:49 | 36.82784 | -18.98065 | 38090 ft | 425 kts | 251° |
| 2026-05-07 01:49 | 36.80616 | -19.04918 | 38086 ft | 424 kts | 251° |
| 2026-05-07 01:50 | 36.78457 | -19.11725 | 38086 ft | 424 kts | 251° |
| 2026-05-07 01:50 | 36.76286 | -19.18557 | 38100 ft | 424 kts | 251° |
| 2026-05-07 01:51 | 36.74096 | -19.25429 | 38105 ft | 424 kts | 251° |
| 2026-05-07 01:51 | 36.71929 | -19.32214 | 38099 ft | 423 kts | 251° |
| 2026-05-07 01:52 | 36.69748 | -19.39028 | 38095 ft | 423 kts | 251° |
| 2026-05-07 01:52 | 36.67564 | -19.45832 | 38101 ft | 422 kts | 251° |
| 2026-05-07 01:53 | 36.65380 | -19.52623 | 38096 ft | 422 kts | 251° |
| 2026-05-07 01:53 | 36.63192 | -19.59410 | 38095 ft | 422 kts | 251° |
| 2026-05-07 01:54 | 36.61003 | -19.66184 | 38090 ft | 422 kts | 251° |
| 2026-05-07 01:54 | 36.58807 | -19.72965 | 38096 ft | 422 kts | 251° |
| 2026-05-07 01:55 | 36.56630 | -19.79671 | 38099 ft | 421 kts | 251° |
| 2026-05-07 01:55 | 36.54427 | -19.86440 | 38096 ft | 421 kts | 251° |
| 2026-05-07 01:56 | 36.52226 | -19.93190 | 38094 ft | 421 kts | 251° |
| 2026-05-07 01:56 | 36.50021 | -19.99940 | 38089 ft | 421 kts | 252° |
| 2026-05-07 01:57 | 36.48010 | -20.06753 | 38102 ft | 420 kts | 252° |
| 2026-05-07 01:57 | 36.45981 | -20.13572 | 38100 ft | 420 kts | 252° |
| 2026-05-07 01:58 | 36.43976 | -20.20340 | 38093 ft | 420 kts | 252° |
| 2026-05-07 01:58 | 36.41947 | -20.27150 | 38090 ft | 419 kts | 252° |
| 2026-05-07 01:59 | 36.39930 | -20.33913 | 38093 ft | 419 kts | 252° |
| 2026-05-07 01:59 | 36.37900 | -20.40700 | 38093 ft | 419 kts | 252° |
| 2026-05-07 02:00 | 36.35867 | -20.47481 | 38093 ft | 419 kts | 252° |
| 2026-05-07 02:00 | 36.33831 | -20.54252 | 38088 ft | 418 kts | 252° |
| 2026-05-07 02:01 | 36.31816 | -20.60943 | 38094 ft | 418 kts | 252° |
| 2026-05-07 02:01 | 36.29761 | -20.67747 | 38092 ft | 417 kts | 252° |
| 2026-05-07 02:02 | 36.27732 | -20.74451 | 38090 ft | 418 kts | 252° |
| 2026-05-07 02:02 | 36.25684 | -20.81202 | 38093 ft | 418 kts | 252° |
| 2026-05-07 02:03 | 36.23638 | -20.87928 | 38101 ft | 417 kts | 252° |
| 2026-05-07 02:03 | 36.21590 | -20.94646 | 38098 ft | 417 kts | 252° |
| 2026-05-07 02:04 | 36.19529 | -21.01392 | 38089 ft | 418 kts | 252° |
| 2026-05-07 02:04 | 36.17478 | -21.08087 | 38088 ft | 418 kts | 252° |
| 2026-05-07 02:05 | 36.15415 | -21.14806 | 38096 ft | 419 kts | 252° |
| 2026-05-07 02:05 | 36.13338 | -21.21558 | 38099 ft | 420 kts | 252° |
| 2026-05-07 02:06 | 36.11257 | -21.28302 | 38099 ft | 420 kts | 251° |
| 2026-05-07 02:06 | 36.09166 | -21.35065 | 38100 ft | 420 kts | 251° |
| 2026-05-07 02:07 | 36.07078 | -21.41803 | 38103 ft | 420 kts | 251° |
| 2026-05-07 02:07 | 36.03933 | -21.51920 | 38101 ft | 420 kts | 251° |
| 2026-05-07 02:08 | 36.01829 | -21.58670 | 38105 ft | 420 kts | 251° |
| 2026-05-07 02:08 | 35.99742 | -21.65351 | 38105 ft | 421 kts | 251° |
| 2026-05-07 02:09 | 35.97628 | -21.72098 | 38109 ft | 420 kts | 251° |
| 2026-05-07 02:09 | 35.95517 | -21.78827 | 38107 ft | 420 kts | 251° |
| 2026-05-07 02:10 | 35.93399 | -21.85555 | 38111 ft | 420 kts | 251° |
| 2026-05-07 02:10 | 35.91284 | -21.92264 | 38108 ft | 419 kts | 251° |
| 2026-05-07 02:11 | 35.89167 | -21.98959 | 38110 ft | 419 kts | 251° |
| 2026-05-07 02:11 | 35.87049 | -22.05646 | 38110 ft | 418 kts | 251° |
| 2026-05-07 02:12 | 35.84934 | -22.12306 | 38110 ft | 417 kts | 251° |
| 2026-05-07 02:12 | 35.82824 | -22.18937 | 38110 ft | 417 kts | 251° |
| 2026-05-07 02:13 | 35.80704 | -22.25586 | 38106 ft | 417 kts | 251° |
| 2026-05-07 02:13 | 35.78576 | -22.32239 | 38111 ft | 417 kts | 251° |
| 2026-05-07 02:14 | 35.76444 | -22.38894 | 38109 ft | 417 kts | 251° |
| 2026-05-07 02:14 | 35.74310 | -22.45542 | 38109 ft | 417 kts | 251° |
| 2026-05-07 02:15 | 35.72174 | -22.52175 | 38114 ft | 417 kts | 251° |
| 2026-05-07 02:15 | 35.70044 | -22.58779 | 38112 ft | 417 kts | 251° |
| 2026-05-07 02:16 | 35.67896 | -22.65424 | 38110 ft | 417 kts | 251° |
| 2026-05-07 02:16 | 35.65752 | -22.72041 | 38110 ft | 416 kts | 251° |
| 2026-05-07 02:17 | 35.63602 | -22.78662 | 38113 ft | 416 kts | 251° |
| 2026-05-07 02:17 | 35.61452 | -22.85268 | 38111 ft | 416 kts | 251° |
| 2026-05-07 02:18 | 35.59298 | -22.91871 | 38115 ft | 416 kts | 251° |
| 2026-05-07 02:18 | 35.57149 | -22.98444 | 38116 ft | 416 kts | 251° |
| 2026-05-07 02:19 | 35.54995 | -23.05021 | 38116 ft | 416 kts | 251° |
| 2026-05-07 02:19 | 35.52830 | -23.11613 | 38116 ft | 416 kts | 251° |
| 2026-05-07 02:20 | 35.50660 | -23.18209 | 38111 ft | 415 kts | 251° |
| 2026-05-07 02:20 | 35.48506 | -23.24741 | 38112 ft | 415 kts | 251° |
| 2026-05-07 02:21 | 35.46335 | -23.31310 | 38122 ft | 415 kts | 251° |
| 2026-05-07 02:21 | 35.44163 | -23.37866 | 38116 ft | 415 kts | 251° |
| 2026-05-07 02:22 | 35.41989 | -23.44415 | 38119 ft | 414 kts | 251° |
| 2026-05-07 02:22 | 35.39809 | -23.50968 | 38120 ft | 414 kts | 251° |
| 2026-05-07 02:23 | 35.37631 | -23.57502 | 38118 ft | 414 kts | 251° |
| 2026-05-07 02:23 | 35.35461 | -23.63999 | 38119 ft | 414 kts | 251° |
| 2026-05-07 02:24 | 35.33276 | -23.70523 | 38121 ft | 414 kts | 251° |
| 2026-05-07 02:24 | 35.31087 | -23.77048 | 38123 ft | 413 kts | 251° |
| 2026-05-07 02:25 | 35.28901 | -23.83549 | 38122 ft | 413 kts | 251° |
| 2026-05-07 02:25 | 35.26709 | -23.90052 | 38125 ft | 412 kts | 251° |
| 2026-05-07 02:26 | 35.24519 | -23.96540 | 38122 ft | 412 kts | 251° |
| 2026-05-07 02:26 | 35.22328 | -24.03013 | 38124 ft | 412 kts | 251° |
| 2026-05-07 02:27 | 35.20136 | -24.09478 | 38123 ft | 412 kts | 251° |
| 2026-05-07 02:27 | 35.17958 | -24.15887 | 38125 ft | 411 kts | 252° |
| 2026-05-07 02:28 | 35.15760 | -24.22343 | 38129 ft | 411 kts | 252° |
| 2026-05-07 02:28 | 35.13556 | -24.28801 | 38126 ft | 411 kts | 252° |
| 2026-05-07 02:29 | 35.11720 | -24.34170 | 38129 ft | 411 kts | 252° |
| 2026-05-07 02:29 | 35.09515 | -24.40607 | 38125 ft | 411 kts | 252° |
| 2026-05-07 02:30 | 35.07307 | -24.47041 | 38126 ft | 411 kts | 252° |
| 2026-05-07 02:30 | 35.05095 | -24.53471 | 38128 ft | 411 kts | 252° |
| 2026-05-07 02:31 | 35.02878 | -24.59902 | 38129 ft | 411 kts | 252° |
| 2026-05-07 02:31 | 35.00650 | -24.66351 | 38127 ft | 412 kts | 252° |
| 2026-05-07 02:32 | 34.98438 | -24.72743 | 38130 ft | 412 kts | 252° |
| 2026-05-07 02:32 | 34.96200 | -24.79196 | 38130 ft | 412 kts | 252° |
| 2026-05-07 02:33 | 34.93958 | -24.85645 | 38129 ft | 412 kts | 252° |
| 2026-05-07 02:33 | 34.91719 | -24.92073 | 38141 ft | 412 kts | 252° |
| 2026-05-07 02:34 | 34.89481 | -24.98486 | 38139 ft | 412 kts | 252° |
| 2026-05-07 02:34 | 34.87231 | -25.04921 | 38135 ft | 412 kts | 252° |
| 2026-05-07 02:35 | 34.84987 | -25.11324 | 38136 ft | 411 kts | 252° |
| 2026-05-07 02:35 | 34.82752 | -25.17688 | 38126 ft | 411 kts | 252° |
| 2026-05-07 02:36 | 34.80497 | -25.24097 | 38134 ft | 412 kts | 252° |
| 2026-05-07 02:36 | 34.78238 | -25.30504 | 38132 ft | 411 kts | 252° |
| 2026-05-07 02:37 | 34.75983 | -25.36889 | 38133 ft | 412 kts | 252° |
| 2026-05-07 02:37 | 34.73714 | -25.43298 | 38132 ft | 411 kts | 252° |
| 2026-05-07 02:38 | 34.71464 | -25.49642 | 38137 ft | 412 kts | 252° |
| 2026-05-07 02:38 | 34.69188 | -25.56044 | 38136 ft | 412 kts | 252° |
| 2026-05-07 02:39 | 34.66911 | -25.62437 | 38135 ft | 412 kts | 252° |
| 2026-05-07 02:39 | 34.64630 | -25.68828 | 38135 ft | 412 kts | 252° |
| 2026-05-07 02:40 | 34.62345 | -25.75217 | 38138 ft | 412 kts | 252° |
| 2026-05-07 02:40 | 34.60059 | -25.81599 | 38136 ft | 412 kts | 252° |
| 2026-05-07 02:41 | 34.57780 | -25.87945 | 38150 ft | 412 kts | 252° |
| 2026-05-07 02:41 | 34.55485 | -25.94325 | 38141 ft | 412 kts | 252° |
| 2026-05-07 02:42 | 34.53187 | -26.00702 | 38143 ft | 412 kts | 252° |
| 2026-05-07 02:42 | 34.50885 | -26.07074 | 38141 ft | 412 kts | 252° |
| 2026-05-07 02:43 | 34.48581 | -26.13439 | 38141 ft | 413 kts | 252° |
| 2026-05-07 02:43 | 34.46267 | -26.19821 | 38144 ft | 413 kts | 252° |
| 2026-05-07 02:44 | 34.43951 | -26.26195 | 38147 ft | 413 kts | 252° |
| 2026-05-07 02:44 | 34.41646 | -26.32527 | 38144 ft | 414 kts | 252° |
| 2026-05-07 02:45 | 34.39315 | -26.38918 | 38159 ft | 414 kts | 252° |
| 2026-05-07 02:45 | 34.36981 | -26.45302 | 38152 ft | 415 kts | 252° |
| 2026-05-07 02:46 | 34.34644 | -26.51683 | 38145 ft | 415 kts | 252° |
| 2026-05-07 02:46 | 34.32299 | -26.58075 | 38149 ft | 415 kts | 252° |
| 2026-05-07 02:47 | 34.29950 | -26.64464 | 38151 ft | 416 kts | 252° |
| 2026-05-07 02:47 | 34.27587 | -26.70876 | 38149 ft | 417 kts | 252° |
| 2026-05-07 02:48 | 34.25265 | -26.77168 | 38149 ft | 417 kts | 252° |
| 2026-05-07 02:48 | 34.22912 | -26.83530 | 38149 ft | 417 kts | 252° |
| 2026-05-07 02:49 | 34.20528 | -26.89963 | 38149 ft | 416 kts | 252° |
| 2026-05-07 02:49 | 34.18174 | -26.96305 | 38147 ft | 416 kts | 252° |
| 2026-05-07 02:50 | 34.15797 | -27.02692 | 38148 ft | 416 kts | 252° |
| 2026-05-07 02:50 | 34.13423 | -27.09060 | 38152 ft | 416 kts | 252° |
| 2026-05-07 02:51 | 34.11049 | -27.15419 | 38155 ft | 416 kts | 252° |
| 2026-05-07 02:51 | 34.08669 | -27.21778 | 38156 ft | 416 kts | 252° |
| 2026-05-07 02:52 | 34.06283 | -27.28142 | 38156 ft | 416 kts | 252° |
| 2026-05-07 02:52 | 34.03897 | -27.34493 | 38155 ft | 416 kts | 252° |
| 2026-05-07 02:53 | 34.01511 | -27.40832 | 38164 ft | 416 kts | 252° |
| 2026-05-07 02:53 | 33.99116 | -27.47183 | 38159 ft | 416 kts | 252° |
| 2026-05-07 02:54 | 33.96711 | -27.53550 | 38167 ft | 416 kts | 252° |
| 2026-05-07 02:54 | 33.94324 | -27.59856 | 38161 ft | 416 kts | 252° |
| 2026-05-07 02:55 | 33.91914 | -27.66209 | 38158 ft | 417 kts | 252° |
| 2026-05-07 02:55 | 33.89506 | -27.72547 | 38158 ft | 417 kts | 252° |
| 2026-05-07 02:56 | 33.87082 | -27.78912 | 38160 ft | 417 kts | 252° |
| 2026-05-07 02:56 | 33.84669 | -27.85239 | 38165 ft | 417 kts | 252° |
| 2026-05-07 02:57 | 33.82244 | -27.91584 | 38166 ft | 417 kts | 252° |
| 2026-05-07 02:57 | 33.79825 | -27.97899 | 38163 ft | 418 kts | 252° |
| 2026-05-07 02:58 | 33.77396 | -28.04232 | 38165 ft | 417 kts | 252° |
| 2026-05-07 02:58 | 33.74965 | -28.10555 | 38160 ft | 417 kts | 252° |
| 2026-05-07 02:59 | 33.72530 | -28.16878 | 38164 ft | 417 kts | 252° |
| 2026-05-07 02:59 | 33.70095 | -28.23189 | 38163 ft | 417 kts | 252° |
| 2026-05-07 03:00 | 33.67652 | -28.29511 | 38165 ft | 417 kts | 252° |
| 2026-05-07 03:00 | 33.65220 | -28.35789 | 38168 ft | 417 kts | 252° |
| 2026-05-07 03:01 | 33.62772 | -28.42099 | 38167 ft | 417 kts | 252° |
| 2026-05-07 03:01 | 33.60319 | -28.48407 | 38168 ft | 416 kts | 252° |
| 2026-05-07 03:02 | 33.57873 | -28.54688 | 38168 ft | 415 kts | 252° |
| 2026-05-07 03:02 | 33.55419 | -28.60980 | 38175 ft | 417 kts | 252° |
| 2026-05-07 03:03 | 33.52956 | -28.67278 | 38172 ft | 418 kts | 252° |
| 2026-05-07 03:03 | 33.50499 | -28.73553 | 38177 ft | 418 kts | 252° |
| 2026-05-07 03:04 | 33.48020 | -28.79871 | 38167 ft | 419 kts | 252° |
| 2026-05-07 03:04 | 33.45531 | -28.86202 | 38189 ft | 420 kts | 252° |
| 2026-05-07 03:05 | 33.43040 | -28.92527 | 38181 ft | 421 kts | 252° |
| 2026-05-07 03:05 | 33.40530 | -28.98887 | 38175 ft | 422 kts | 252° |
| 2026-05-07 03:06 | 33.38015 | -29.05251 | 38170 ft | 423 kts | 252° |
| 2026-05-07 03:06 | 33.35496 | -29.11610 | 38174 ft | 424 kts | 252° |
| 2026-05-07 03:07 | 33.32961 | -29.17998 | 38174 ft | 425 kts | 252° |
| 2026-05-07 03:07 | 33.30439 | -29.24343 | 38177 ft | 426 kts | 252° |
| 2026-05-07 03:08 | 33.27891 | -29.30740 | 38176 ft | 426 kts | 252° |
| 2026-05-07 03:08 | 33.25335 | -29.37145 | 38185 ft | 428 kts | 252° |
| 2026-05-07 03:09 | 33.22768 | -29.43565 | 38179 ft | 428 kts | 252° |
| 2026-05-07 03:09 | 33.20193 | -29.49996 | 38182 ft | 429 kts | 252° |
| 2026-05-07 03:10 | 33.17616 | -29.56416 | 38184 ft | 429 kts | 252° |
| 2026-05-07 03:10 | 33.15027 | -29.62857 | 38184 ft | 430 kts | 252° |
| 2026-05-07 03:11 | 33.12450 | -29.69255 | 38183 ft | 431 kts | 252° |
| 2026-05-07 03:11 | 33.09832 | -29.75743 | 38186 ft | 432 kts | 252° |
| 2026-05-07 03:12 | 33.07236 | -29.82165 | 38190 ft | 432 kts | 252° |
| 2026-05-07 03:12 | 33.04599 | -29.88674 | 38188 ft | 433 kts | 252° |
| 2026-05-07 03:13 | 33.01991 | -29.95100 | 38189 ft | 434 kts | 252° |
| 2026-05-07 03:13 | 32.98855 | -30.01322 | 38222 ft | 447 kts | 239° |
| 2026-05-07 03:14 | 32.94601 | -30.06840 | 38200 ft | 453 kts | 236° |
| 2026-05-07 03:15 | 32.88129 | -30.15051 | 38196 ft | 453 kts | 236° |
| 2026-05-07 03:15 | 32.83800 | -30.20521 | 38195 ft | 453 kts | 236° |
| 2026-05-07 03:16 | 32.79504 | -30.25946 | 38199 ft | 453 kts | 236° |
| 2026-05-07 03:16 | 32.75155 | -30.31427 | 38205 ft | 453 kts | 236° |
| 2026-05-07 03:17 | 32.70848 | -30.36847 | 38198 ft | 454 kts | 236° |
| 2026-05-07 03:17 | 32.67239 | -30.41382 | 38205 ft | 454 kts | 236° |
| 2026-05-07 03:18 | 32.62902 | -30.46826 | 38198 ft | 454 kts | 235° |
| 2026-05-07 03:18 | 32.58556 | -30.52273 | 38198 ft | 455 kts | 235° |
| 2026-05-07 03:19 | 32.54199 | -30.57723 | 38207 ft | 455 kts | 235° |
| 2026-05-07 03:19 | 32.49836 | -30.63174 | 38205 ft | 455 kts | 235° |
| 2026-05-07 03:20 | 32.45474 | -30.68616 | 38204 ft | 456 kts | 235° |
| 2026-05-07 03:20 | 32.41102 | -30.74062 | 38210 ft | 456 kts | 235° |
| 2026-05-07 03:21 | 32.36753 | -30.79471 | 38208 ft | 457 kts | 235° |
| 2026-05-07 03:21 | 32.32358 | -30.84929 | 38209 ft | 458 kts | 234° |
| 2026-05-07 03:22 | 32.27958 | -30.90384 | 38206 ft | 459 kts | 234° |
| 2026-05-07 03:22 | 32.23547 | -30.95846 | 38212 ft | 460 kts | 234° |
| 2026-05-07 03:23 | 32.19129 | -31.01307 | 38215 ft | 460 kts | 234° |
| 2026-05-07 03:23 | 32.14693 | -31.06783 | 38211 ft | 461 kts | 234° |
| 2026-05-07 03:24 | 32.10254 | -31.12254 | 38210 ft | 462 kts | 234° |
| 2026-05-07 03:24 | 32.05829 | -31.17700 | 38212 ft | 462 kts | 234° |
| 2026-05-07 03:25 | 32.01384 | -31.23162 | 38215 ft | 463 kts | 234° |
| 2026-05-07 03:25 | 31.96918 | -31.28643 | 38214 ft | 464 kts | 234° |
| 2026-05-07 03:26 | 31.92442 | -31.34126 | 38215 ft | 464 kts | 234° |
| 2026-05-07 03:26 | 31.87958 | -31.39611 | 38218 ft | 465 kts | 234° |
| 2026-05-07 03:27 | 31.83477 | -31.45085 | 38223 ft | 466 kts | 234° |
| 2026-05-07 03:27 | 31.78976 | -31.50575 | 38221 ft | 466 kts | 233° |
| 2026-05-07 03:28 | 31.74476 | -31.56055 | 38222 ft | 466 kts | 233° |
| 2026-05-07 03:28 | 31.69991 | -31.61510 | 38222 ft | 467 kts | 233° |
| 2026-05-07 03:29 | 31.65478 | -31.66988 | 38222 ft | 467 kts | 233° |
| 2026-05-07 03:29 | 31.60968 | -31.72457 | 38219 ft | 468 kts | 233° |
| 2026-05-07 03:30 | 31.56424 | -31.77959 | 38226 ft | 468 kts | 233° |
| 2026-05-07 03:30 | 31.51903 | -31.83423 | 38224 ft | 469 kts | 233° |
| 2026-05-07 03:31 | 31.47342 | -31.88928 | 38223 ft | 469 kts | 233° |
| 2026-05-07 03:31 | 31.42799 | -31.94404 | 38222 ft | 469 kts | 233° |
| 2026-05-07 03:32 | 31.38229 | -31.99903 | 38226 ft | 470 kts | 233° |
| 2026-05-07 03:32 | 31.33664 | -32.05389 | 38227 ft | 470 kts | 233° |
| 2026-05-07 03:33 | 31.29121 | -32.10840 | 38225 ft | 471 kts | 233° |
| 2026-05-07 03:33 | 31.24538 | -32.16331 | 38223 ft | 471 kts | 233° |
| 2026-05-07 03:34 | 31.19954 | -32.21816 | 38226 ft | 472 kts | 233° |
| 2026-05-07 03:34 | 31.15359 | -32.27303 | 38220 ft | 473 kts | 233° |
| 2026-05-07 03:35 | 31.10760 | -32.32790 | 38238 ft | 473 kts | 232° |
| 2026-05-07 03:35 | 31.06151 | -32.38279 | 38235 ft | 473 kts | 232° |
| 2026-05-07 03:36 | 31.01546 | -32.43756 | 38228 ft | 473 kts | 232° |
| 2026-05-07 03:36 | 30.96927 | -32.49242 | 38228 ft | 473 kts | 232° |
| 2026-05-07 03:37 | 30.92338 | -32.54683 | 38219 ft | 474 kts | 232° |
| 2026-05-07 03:37 | 30.87713 | -32.60159 | 38226 ft | 474 kts | 232° |
| 2026-05-07 03:38 | 30.83092 | -32.65622 | 38223 ft | 474 kts | 232° |
| 2026-05-07 03:38 | 30.78459 | -32.71092 | 38221 ft | 474 kts | 232° |
| 2026-05-07 03:39 | 30.73817 | -32.76565 | 38222 ft | 474 kts | 232° |
| 2026-05-07 03:39 | 30.69187 | -32.82015 | 38221 ft | 474 kts | 232° |
| 2026-05-07 03:40 | 30.64551 | -32.87465 | 38223 ft | 474 kts | 232° |
| 2026-05-07 03:40 | 30.59916 | -32.92906 | 38223 ft | 474 kts | 232° |
| 2026-05-07 03:41 | 30.55263 | -32.98359 | 38225 ft | 475 kts | 232° |
| 2026-05-07 03:41 | 30.50639 | -33.03771 | 38222 ft | 475 kts | 232° |
| 2026-05-07 03:42 | 30.45993 | -33.09201 | 38221 ft | 475 kts | 232° |
| 2026-05-07 03:42 | 30.41329 | -33.14644 | 38225 ft | 475 kts | 232° |
| 2026-05-07 03:43 | 30.36661 | -33.20084 | 38226 ft | 475 kts | 232° |
| 2026-05-07 03:43 | 30.32002 | -33.25506 | 38217 ft | 475 kts | 232° |
| 2026-05-07 03:44 | 30.27337 | -33.30927 | 38221 ft | 475 kts | 232° |
| 2026-05-07 03:44 | 30.22672 | -33.36339 | 38222 ft | 475 kts | 232° |
| 2026-05-07 03:45 | 30.18034 | -33.41714 | 38218 ft | 475 kts | 232° |
| 2026-05-07 03:45 | 30.13372 | -33.47108 | 38220 ft | 475 kts | 232° |
| 2026-05-07 03:46 | 30.08697 | -33.52509 | 38221 ft | 474 kts | 232° |
| 2026-05-07 03:46 | 30.04035 | -33.57888 | 38231 ft | 474 kts | 232° |
| 2026-05-07 03:47 | 29.99354 | -33.63282 | 38231 ft | 474 kts | 232° |
| 2026-05-07 03:47 | 29.94709 | -33.68626 | 38224 ft | 474 kts | 232° |
| 2026-05-07 03:48 | 29.90035 | -33.73997 | 38222 ft | 474 kts | 232° |
| 2026-05-07 03:48 | 29.85365 | -33.79354 | 38214 ft | 473 kts | 232° |
| 2026-05-07 03:49 | 29.80727 | -33.84669 | 38221 ft | 473 kts | 232° |
| 2026-05-07 03:49 | 29.76064 | -33.90004 | 38218 ft | 473 kts | 232° |
| 2026-05-07 03:50 | 29.71379 | -33.95356 | 38218 ft | 474 kts | 232° |
| 2026-05-07 03:50 | 29.66699 | -34.00696 | 38225 ft | 474 kts | 232° |
| 2026-05-07 03:51 | 29.62014 | -34.06034 | 38226 ft | 474 kts | 232° |
| 2026-05-07 03:51 | 29.57322 | -34.11373 | 38221 ft | 474 kts | 232° |
| 2026-05-07 03:52 | 29.52638 | -34.16695 | 38222 ft | 474 kts | 232° |
| 2026-05-07 03:52 | 29.47944 | -34.22021 | 38218 ft | 475 kts | 232° |
| 2026-05-07 03:53 | 29.43242 | -34.27348 | 38220 ft | 475 kts | 232° |
| 2026-05-07 03:53 | 29.38559 | -34.32648 | 38220 ft | 475 kts | 232° |
| 2026-05-07 03:54 | 29.33850 | -34.37969 | 38218 ft | 475 kts | 232° |
| 2026-05-07 03:54 | 29.29144 | -34.43280 | 38221 ft | 475 kts | 232° |
| 2026-05-07 03:55 | 29.24433 | -34.48589 | 38223 ft | 476 kts | 232° |
| 2026-05-07 03:55 | 29.19712 | -34.53900 | 38221 ft | 476 kts | 232° |
| 2026-05-07 03:56 | 29.14979 | -34.59221 | 38220 ft | 476 kts | 232° |
| 2026-05-07 03:56 | 29.10274 | -34.64500 | 38224 ft | 476 kts | 232° |
| 2026-05-07 03:57 | 29.05541 | -34.69805 | 38218 ft | 477 kts | 232° |
| 2026-05-07 03:57 | 29.00794 | -34.75118 | 38218 ft | 477 kts | 232° |
| 2026-05-07 03:58 | 28.96048 | -34.80422 | 38218 ft | 476 kts | 232° |
| 2026-05-07 03:58 | 28.91305 | -34.85717 | 38218 ft | 476 kts | 231° |
| 2026-05-07 03:59 | 28.86592 | -34.90971 | 38217 ft | 476 kts | 231° |
| 2026-05-07 03:59 | 28.81850 | -34.96250 | 38217 ft | 477 kts | 231° |
| 2026-05-07 04:00 | 28.77091 | -35.01540 | 38217 ft | 476 kts | 231° |
| 2026-05-07 04:00 | 28.72344 | -35.06812 | 38214 ft | 477 kts | 231° |
| 2026-05-07 04:01 | 28.67587 | -35.12086 | 38218 ft | 477 kts | 231° |
| 2026-05-07 04:01 | 28.62826 | -35.17357 | 38212 ft | 477 kts | 231° |
| 2026-05-07 04:02 | 28.58091 | -35.22593 | 38226 ft | 478 kts | 231° |
| 2026-05-07 04:02 | 28.53311 | -35.27870 | 38221 ft | 478 kts | 231° |
| 2026-05-07 04:03 | 28.48562 | -35.33109 | 38223 ft | 478 kts | 231° |
| 2026-05-07 04:03 | 28.43788 | -35.38367 | 38219 ft | 478 kts | 231° |
| 2026-05-07 04:04 | 28.39004 | -35.43629 | 38215 ft | 479 kts | 231° |
| 2026-05-07 04:04 | 28.34207 | -35.48898 | 38214 ft | 480 kts | 231° |
| 2026-05-07 04:05 | 28.30212 | -35.53282 | 38211 ft | 480 kts | 231° |
| 2026-05-07 04:05 | 28.25404 | -35.58551 | 38207 ft | 480 kts | 230° |
| 2026-05-07 04:06 | 28.20595 | -35.63813 | 38208 ft | 481 kts | 230° |
| 2026-05-07 04:06 | 28.15779 | -35.69077 | 38209 ft | 481 kts | 230° |
| 2026-05-07 04:07 | 28.10990 | -35.74304 | 38201 ft | 481 kts | 230° |
| 2026-05-07 04:07 | 28.06161 | -35.79568 | 38204 ft | 481 kts | 230° |
| 2026-05-07 04:08 | 28.01310 | -35.84848 | 38207 ft | 481 kts | 230° |
| 2026-05-07 04:08 | 27.96518 | -35.90059 | 38202 ft | 481 kts | 230° |
| 2026-05-07 04:09 | 27.91684 | -35.95307 | 38202 ft | 481 kts | 230° |
| 2026-05-07 04:09 | 27.86850 | -36.00549 | 38207 ft | 481 kts | 230° |
| 2026-05-07 04:10 | 27.82014 | -36.05786 | 38203 ft | 481 kts | 230° |
| 2026-05-07 04:10 | 27.77201 | -36.10991 | 38204 ft | 482 kts | 230° |
| 2026-05-07 04:11 | 27.72360 | -36.16220 | 38200 ft | 482 kts | 230° |
| 2026-05-07 04:11 | 27.67520 | -36.21442 | 38203 ft | 482 kts | 230° |
| 2026-05-07 04:12 | 27.62667 | -36.26671 | 38203 ft | 483 kts | 229° |
| 2026-05-07 04:12 | 27.57771 | -36.31938 | 38206 ft | 484 kts | 229° |
| 2026-05-07 04:13 | 27.52925 | -36.37145 | 38201 ft | 484 kts | 229° |
| 2026-05-07 04:13 | 27.48036 | -36.42393 | 38203 ft | 484 kts | 229° |
| 2026-05-07 04:14 | 27.43153 | -36.47626 | 38197 ft | 485 kts | 229° |
| 2026-05-07 04:14 | 27.38253 | -36.52871 | 38217 ft | 485 kts | 229° |
| 2026-05-07 04:15 | 27.33388 | -36.58073 | 38212 ft | 485 kts | 229° |
| 2026-05-07 04:15 | 27.28488 | -36.63304 | 38210 ft | 486 kts | 229° |
| 2026-05-07 04:16 | 27.23579 | -36.68538 | 38210 ft | 486 kts | 229° |
| 2026-05-07 04:16 | 27.18669 | -36.73768 | 38202 ft | 486 kts | 229° |
| 2026-05-07 04:17 | 27.13757 | -36.78992 | 38199 ft | 486 kts | 229° |
| 2026-05-07 04:17 | 27.08844 | -36.84212 | 38197 ft | 486 kts | 229° |
| 2026-05-07 04:18 | 27.03935 | -36.89419 | 38191 ft | 486 kts | 229° |
| 2026-05-07 04:18 | 26.99037 | -36.94609 | 38189 ft | 486 kts | 229° |
| 2026-05-07 04:19 | 26.94118 | -36.99815 | 38191 ft | 486 kts | 228° |
| 2026-05-07 04:19 | 26.89190 | -37.05023 | 38192 ft | 487 kts | 228° |
| 2026-05-07 04:20 | 26.84263 | -37.10224 | 38187 ft | 486 kts | 228° |
| 2026-05-07 04:20 | 26.79331 | -37.15425 | 38187 ft | 487 kts | 228° |
| 2026-05-07 04:21 | 26.71920 | -37.23224 | 38187 ft | 488 kts | 228° |
| 2026-05-07 04:21 | 26.66996 | -37.28400 | 38191 ft | 488 kts | 228° |
| 2026-05-07 04:22 | 26.62067 | -37.33574 | 38184 ft | 488 kts | 228° |
| 2026-05-07 04:22 | 26.57104 | -37.38777 | 38182 ft | 488 kts | 228° |
| 2026-05-07 04:23 | 26.52135 | -37.43979 | 38178 ft | 489 kts | 228° |
| 2026-05-07 04:23 | 26.47163 | -37.49179 | 38181 ft | 489 kts | 227° |
| 2026-05-07 04:24 | 26.42218 | -37.54343 | 38184 ft | 489 kts | 227° |
| 2026-05-07 04:24 | 26.37247 | -37.59529 | 38178 ft | 490 kts | 227° |
| 2026-05-07 04:25 | 26.32257 | -37.64728 | 38180 ft | 491 kts | 227° |
| 2026-05-07 04:25 | 26.27263 | -37.69924 | 38178 ft | 491 kts | 227° |
| 2026-05-07 04:26 | 26.22294 | -37.75089 | 38177 ft | 491 kts | 227° |
| 2026-05-07 04:26 | 26.17293 | -37.80279 | 38176 ft | 491 kts | 227° |
| 2026-05-07 04:27 | 26.12280 | -37.85477 | 38176 ft | 491 kts | 227° |
| 2026-05-07 04:27 | 26.07284 | -37.90650 | 38181 ft | 491 kts | 227° |
| 2026-05-07 04:28 | 26.02260 | -37.95846 | 38181 ft | 492 kts | 227° |
| 2026-05-07 04:28 | 25.97242 | -38.01029 | 38181 ft | 492 kts | 227° |
| 2026-05-07 04:29 | 25.92249 | -38.06180 | 38173 ft | 492 kts | 227° |
| 2026-05-07 04:29 | 25.87234 | -38.11348 | 38171 ft | 493 kts | 227° |
| 2026-05-07 04:30 | 25.82236 | -38.16492 | 38169 ft | 493 kts | 227° |
| 2026-05-07 04:30 | 25.77161 | -38.21709 | 38170 ft | 493 kts | 227° |
| 2026-05-07 04:31 | 25.72133 | -38.26871 | 38169 ft | 493 kts | 227° |
| 2026-05-07 04:31 | 25.67094 | -38.32038 | 38169 ft | 493 kts | 227° |
| 2026-05-07 04:32 | 25.62090 | -38.37163 | 38168 ft | 493 kts | 226° |
| 2026-05-07 04:32 | 25.57047 | -38.42322 | 38167 ft | 493 kts | 226° |
| 2026-05-07 04:33 | 25.51999 | -38.47481 | 38166 ft | 493 kts | 226° |
| 2026-05-07 04:33 | 25.46952 | -38.52631 | 38166 ft | 493 kts | 226° |
| 2026-05-07 04:34 | 25.41926 | -38.57754 | 38164 ft | 494 kts | 226° |
| 2026-05-07 04:34 | 25.36869 | -38.62902 | 38162 ft | 494 kts | 226° |
| 2026-05-07 04:35 | 25.31816 | -38.68038 | 38168 ft | 488 kts | 227° |
| 2026-05-07 04:35 | 25.26906 | -38.73025 | 38166 ft | 475 kts | 227° |
| 2026-05-07 04:36 | 25.22012 | -38.77996 | 38163 ft | 479 kts | 227° |
| 2026-05-07 04:36 | 25.17094 | -38.82976 | 38176 ft | 481 kts | 227° |
| 2026-05-07 04:37 | 25.12173 | -38.87958 | 38173 ft | 482 kts | 226° |
| 2026-05-07 04:37 | 25.07213 | -38.92972 | 38171 ft | 482 kts | 226° |
| 2026-05-07 04:38 | 25.02261 | -38.97974 | 38174 ft | 483 kts | 226° |
| 2026-05-07 04:38 | 24.97294 | -39.02984 | 38174 ft | 483 kts | 226° |
| 2026-05-07 04:39 | 24.92341 | -39.07975 | 38167 ft | 483 kts | 226° |
| 2026-05-07 04:39 | 24.87404 | -39.12943 | 38166 ft | 483 kts | 226° |
| 2026-05-07 04:40 | 24.82445 | -39.17929 | 38164 ft | 483 kts | 226° |
| 2026-05-07 04:40 | 24.77477 | -39.22917 | 38155 ft | 483 kts | 226° |
| 2026-05-07 04:41 | 24.72504 | -39.27905 | 38155 ft | 483 kts | 226° |
| 2026-05-07 04:41 | 24.67521 | -39.32897 | 38155 ft | 483 kts | 226° |
| 2026-05-07 04:42 | 24.62556 | -39.37866 | 38156 ft | 483 kts | 226° |
| 2026-05-07 04:42 | 24.57600 | -39.42821 | 38160 ft | 484 kts | 226° |
| 2026-05-07 04:43 | 24.52623 | -39.47790 | 38154 ft | 484 kts | 226° |
| 2026-05-07 04:43 | 24.47665 | -39.52736 | 38153 ft | 484 kts | 226° |
| 2026-05-07 04:44 | 24.42646 | -39.57736 | 38152 ft | 485 kts | 226° |
| 2026-05-07 04:44 | 24.37674 | -39.62684 | 38153 ft | 485 kts | 226° |
| 2026-05-07 04:45 | 24.32679 | -39.67649 | 38154 ft | 485 kts | 226° |
| 2026-05-07 04:45 | 24.27667 | -39.72626 | 38153 ft | 485 kts | 226° |
| 2026-05-07 04:46 | 24.22658 | -39.77594 | 38148 ft | 486 kts | 225° |
| 2026-05-07 04:46 | 24.17636 | -39.82569 | 38148 ft | 486 kts | 225° |
| 2026-05-07 04:47 | 24.12614 | -39.87540 | 38151 ft | 487 kts | 225° |
| 2026-05-07 04:47 | 24.07614 | -39.92483 | 38144 ft | 487 kts | 225° |
| 2026-05-07 04:48 | 24.02587 | -39.97446 | 38144 ft | 487 kts | 225° |
| 2026-05-07 04:48 | 23.97431 | -40.02252 | 38141 ft | 488 kts | 222° |
| 2026-05-07 04:49 | 23.92153 | -40.06906 | 38166 ft | 488 kts | 222° |
| 2026-05-07 04:49 | 23.86879 | -40.11534 | 38161 ft | 488 kts | 222° |
| 2026-05-07 04:50 | 23.81585 | -40.16181 | 38156 ft | 488 kts | 222° |
| 2026-05-07 04:50 | 23.76273 | -40.20839 | 38155 ft | 489 kts | 222° |
| 2026-05-07 04:51 | 23.70969 | -40.25483 | 38156 ft | 489 kts | 222° |
| 2026-05-07 04:51 | 23.65659 | -40.30129 | 38150 ft | 489 kts | 222° |
| 2026-05-07 04:52 | 23.60372 | -40.34748 | 38151 ft | 490 kts | 222° |
| 2026-05-07 04:52 | 23.55061 | -40.39384 | 38136 ft | 490 kts | 222° |
| 2026-05-07 04:53 | 23.49733 | -40.44030 | 38138 ft | 490 kts | 222° |
| 2026-05-07 04:53 | 23.44417 | -40.48660 | 38136 ft | 490 kts | 222° |
| 2026-05-07 04:54 | 23.39088 | -40.53297 | 38131 ft | 489 kts | 221° |
| 2026-05-07 04:54 | 23.34656 | -40.57150 | 38141 ft | 489 kts | 221° |
| 2026-05-07 04:55 | 23.28468 | -40.62523 | 38139 ft | 490 kts | 221° |
| 2026-05-07 04:55 | 23.24019 | -40.66382 | 38137 ft | 490 kts | 221° |
| 2026-05-07 04:56 | 23.18693 | -40.70998 | 38131 ft | 490 kts | 221° |
| 2026-05-07 04:56 | 23.13360 | -40.75615 | 38127 ft | 490 kts | 221° |
| 2026-05-07 04:57 | 23.08041 | -40.80214 | 38130 ft | 491 kts | 221° |
| 2026-05-07 04:57 | 23.02694 | -40.84834 | 38136 ft | 491 kts | 221° |
| 2026-05-07 04:58 | 22.97338 | -40.89456 | 38132 ft | 490 kts | 221° |
| 2026-05-07 04:58 | 22.92029 | -40.94032 | 38134 ft | 490 kts | 221° |
| 2026-05-07 04:59 | 22.86692 | -40.98629 | 38127 ft | 489 kts | 221° |
| 2026-05-07 04:59 | 22.81370 | -41.03207 | 38133 ft | 489 kts | 221° |
| 2026-05-07 05:00 | 22.76029 | -41.07797 | 38126 ft | 489 kts | 221° |
| 2026-05-07 05:00 | 22.70691 | -41.12380 | 38125 ft | 488 kts | 221° |
| 2026-05-07 05:01 | 22.65370 | -41.16944 | 38124 ft | 489 kts | 221° |
| 2026-05-07 05:01 | 22.60062 | -41.21492 | 38126 ft | 489 kts | 221° |
| 2026-05-07 05:02 | 22.54729 | -41.26056 | 38125 ft | 489 kts | 221° |
| 2026-05-07 05:02 | 22.49380 | -41.30630 | 38125 ft | 490 kts | 221° |
| 2026-05-07 05:03 | 22.44039 | -41.35193 | 38127 ft | 490 kts | 221° |
| 2026-05-07 05:03 | 22.38679 | -41.39766 | 38128 ft | 490 kts | 221° |
| 2026-05-07 05:04 | 22.33349 | -41.44309 | 38127 ft | 491 kts | 221° |
| 2026-05-07 05:04 | 22.27995 | -41.48869 | 38126 ft | 491 kts | 221° |
| 2026-05-07 05:05 | 22.22633 | -41.53431 | 38124 ft | 490 kts | 220° |
| 2026-05-07 05:05 | 22.17280 | -41.57981 | 38124 ft | 490 kts | 220° |
| 2026-05-07 05:06 | 22.11906 | -41.62543 | 38122 ft | 490 kts | 220° |
| 2026-05-07 05:06 | 22.06546 | -41.67089 | 38116 ft | 490 kts | 220° |
| 2026-05-07 05:07 | 22.01177 | -41.71639 | 38116 ft | 489 kts | 220° |
| 2026-05-07 05:07 | 21.95841 | -41.76156 | 38115 ft | 489 kts | 220° |
| 2026-05-07 05:08 | 21.90516 | -41.80660 | 38115 ft | 489 kts | 220° |
| 2026-05-07 05:08 | 21.85160 | -41.85184 | 38112 ft | 489 kts | 220° |
| 2026-05-07 05:09 | 21.79788 | -41.89719 | 38115 ft | 490 kts | 220° |
| 2026-05-07 05:09 | 21.74427 | -41.94240 | 38113 ft | 490 kts | 220° |
| 2026-05-07 05:10 | 21.69094 | -41.98732 | 38113 ft | 490 kts | 220° |
| 2026-05-07 05:10 | 21.63715 | -42.03258 | 38111 ft | 489 kts | 220° |
| 2026-05-07 05:11 | 21.58336 | -42.07782 | 38108 ft | 489 kts | 220° |
| 2026-05-07 05:11 | 21.52979 | -42.12281 | 38108 ft | 489 kts | 220° |
| 2026-05-07 05:12 | 21.47614 | -42.16783 | 38108 ft | 489 kts | 220° |
| 2026-05-07 05:12 | 21.42276 | -42.21258 | 38104 ft | 489 kts | 220° |
| 2026-05-07 05:13 | 21.36917 | -42.25746 | 38108 ft | 489 kts | 220° |
| 2026-05-07 05:13 | 21.31527 | -42.30256 | 38103 ft | 489 kts | 220° |
| 2026-05-07 05:14 | 21.26153 | -42.34749 | 38103 ft | 489 kts | 220° |
| 2026-05-07 05:14 | 21.20821 | -42.39201 | 38100 ft | 489 kts | 220° |
| 2026-05-07 05:15 | 21.15446 | -42.43686 | 38099 ft | 489 kts | 220° |
| 2026-05-07 05:15 | 21.10085 | -42.48155 | 38102 ft | 489 kts | 220° |
| 2026-05-07 05:16 | 21.04695 | -42.52643 | 38100 ft | 489 kts | 220° |
| 2026-05-07 05:16 | 20.99358 | -42.57084 | 38102 ft | 490 kts | 220° |
| 2026-05-07 05:17 | 20.93978 | -42.61555 | 38096 ft | 489 kts | 220° |
| 2026-05-07 05:17 | 20.88600 | -42.66022 | 38094 ft | 489 kts | 220° |
| 2026-05-07 05:18 | 20.83203 | -42.70500 | 38101 ft | 489 kts | 220° |
| 2026-05-07 05:18 | 20.77833 | -42.74951 | 38094 ft | 490 kts | 220° |
| 2026-05-07 05:19 | 20.72429 | -42.79426 | 38093 ft | 490 kts | 220° |
| 2026-05-07 05:19 | 20.67059 | -42.83869 | 38093 ft | 491 kts | 220° |
| 2026-05-07 05:20 | 20.61651 | -42.88340 | 38096 ft | 491 kts | 220° |
| 2026-05-07 05:20 | 20.56241 | -42.92807 | 38093 ft | 491 kts | 220° |
| 2026-05-07 05:21 | 20.48129 | -42.99498 | 38095 ft | 492 kts | 220° |
| 2026-05-07 05:22 | 20.42739 | -43.03940 | 38091 ft | 491 kts | 220° |
| 2026-05-07 05:22 | 20.37349 | -43.08377 | 38090 ft | 490 kts | 220° |
| 2026-05-07 05:23 | 20.31941 | -43.12824 | 38086 ft | 490 kts | 220° |
| 2026-05-07 05:23 | 20.26541 | -43.17262 | 38087 ft | 490 kts | 219° |
| 2026-05-07 05:24 | 20.21144 | -43.21693 | 38086 ft | 489 kts | 219° |
| 2026-05-07 05:24 | 20.15742 | -43.26124 | 38087 ft | 490 kts | 219° |
| 2026-05-07 05:25 | 20.10350 | -43.30542 | 38088 ft | 490 kts | 219° |
| 2026-05-07 05:25 | 20.04971 | -43.34946 | 38102 ft | 490 kts | 219° |
| 2026-05-07 05:26 | 19.99566 | -43.39368 | 38101 ft | 490 kts | 219° |
| 2026-05-07 05:26 | 19.94161 | -43.43785 | 38098 ft | 490 kts | 219° |
| 2026-05-07 05:27 | 19.88731 | -43.48219 | 38101 ft | 491 kts | 219° |
| 2026-05-07 05:27 | 19.83297 | -43.52653 | 38105 ft | 492 kts | 219° |
| 2026-05-07 05:28 | 19.77864 | -43.57082 | 38102 ft | 492 kts | 219° |
| 2026-05-07 05:28 | 19.72469 | -43.61475 | 38102 ft | 492 kts | 219° |
| 2026-05-07 05:29 | 19.67030 | -43.65901 | 38096 ft | 492 kts | 219° |
| 2026-05-07 05:29 | 19.61575 | -43.70336 | 38097 ft | 492 kts | 219° |
| 2026-05-07 05:30 | 19.56145 | -43.74747 | 38091 ft | 491 kts | 219° |
| 2026-05-07 05:30 | 19.50725 | -43.79146 | 38092 ft | 492 kts | 219° |
| 2026-05-07 05:31 | 19.45285 | -43.83557 | 38092 ft | 492 kts | 219° |
| 2026-05-07 05:31 | 19.39867 | -43.87946 | 38089 ft | 492 kts | 219° |
| 2026-05-07 05:32 | 19.34429 | -43.92348 | 38089 ft | 492 kts | 219° |
| 2026-05-07 05:32 | 19.28997 | -43.96741 | 38090 ft | 491 kts | 219° |
| 2026-05-07 05:33 | 19.23571 | -44.01126 | 38083 ft | 491 kts | 219° |
| 2026-05-07 05:33 | 19.18140 | -44.05510 | 38083 ft | 490 kts | 219° |
| 2026-05-07 05:34 | 19.12709 | -44.09892 | 38081 ft | 490 kts | 219° |
| 2026-05-07 05:34 | 19.07281 | -44.14267 | 38080 ft | 490 kts | 219° |
| 2026-05-07 05:35 | 19.01875 | -44.18621 | 38076 ft | 490 kts | 219° |
| 2026-05-07 05:35 | 18.96444 | -44.22991 | 38075 ft | 490 kts | 219° |
| 2026-05-07 05:36 | 18.91009 | -44.27361 | 38076 ft | 491 kts | 219° |
| 2026-05-07 05:36 | 18.85565 | -44.31733 | 38076 ft | 490 kts | 219° |
| 2026-05-07 05:37 | 18.80143 | -44.36085 | 38077 ft | 490 kts | 219° |
| 2026-05-07 05:37 | 18.74751 | -44.40410 | 38077 ft | 490 kts | 219° |
| 2026-05-07 05:38 | 18.69310 | -44.44770 | 38077 ft | 490 kts | 219° |
| 2026-05-07 05:38 | 18.63890 | -44.49109 | 38074 ft | 490 kts | 219° |
| 2026-05-07 05:39 | 18.58447 | -44.53464 | 38074 ft | 490 kts | 219° |
| 2026-05-07 05:39 | 18.53019 | -44.57803 | 38074 ft | 490 kts | 219° |
| 2026-05-07 05:40 | 18.47589 | -44.62140 | 38074 ft | 490 kts | 219° |
| 2026-05-07 05:40 | 18.42150 | -44.66480 | 38076 ft | 490 kts | 219° |
| 2026-05-07 05:41 | 18.36745 | -44.70790 | 38071 ft | 490 kts | 219° |
| 2026-05-07 05:41 | 18.31298 | -44.75130 | 38073 ft | 490 kts | 219° |
| 2026-05-07 05:42 | 18.25865 | -44.79455 | 38069 ft | 490 kts | 219° |
| 2026-05-07 05:42 | 18.20434 | -44.83775 | 38070 ft | 489 kts | 219° |
| 2026-05-07 05:43 | 18.15012 | -44.88085 | 38068 ft | 489 kts | 219° |
| 2026-05-07 05:43 | 18.10479 | -44.91685 | 38069 ft | 489 kts | 219° |
| 2026-05-07 05:44 | 18.05038 | -44.96004 | 38071 ft | 489 kts | 219° |
| 2026-05-07 05:44 | 17.99403 | -45.00020 | 38106 ft | 492 kts | 206° |
| 2026-05-07 05:45 | 17.92917 | -45.02410 | 38082 ft | 495 kts | 199° |
| 2026-05-07 05:45 | 17.86400 | -45.04599 | 38083 ft | 495 kts | 200° |
| 2026-05-07 05:46 | 17.79808 | -45.06840 | 38083 ft | 495 kts | 199° |
| 2026-05-07 05:46 | 17.73272 | -45.09043 | 38083 ft | 495 kts | 199° |
| 2026-05-07 05:47 | 17.66723 | -45.11259 | 38074 ft | 495 kts | 199° |
| 2026-05-07 05:47 | 17.60154 | -45.13474 | 38073 ft | 495 kts | 199° |
| 2026-05-07 05:48 | 17.53593 | -45.15688 | 38074 ft | 495 kts | 200° |
| 2026-05-07 05:48 | 17.47041 | -45.17895 | 38075 ft | 495 kts | 199° |
| 2026-05-07 05:49 | 17.40482 | -45.20104 | 38074 ft | 495 kts | 200° |
| 2026-05-07 05:49 | 17.33951 | -45.22302 | 38073 ft | 495 kts | 200° |
| 2026-05-07 05:50 | 17.27397 | -45.24505 | 38075 ft | 495 kts | 200° |
| 2026-05-07 05:50 | 17.20873 | -45.26697 | 38072 ft | 495 kts | 200° |
| 2026-05-07 05:51 | 17.14316 | -45.28899 | 38075 ft | 495 kts | 200° |
| 2026-05-07 05:51 | 17.07774 | -45.31094 | 38074 ft | 494 kts | 200° |
| 2026-05-07 05:52 | 17.01214 | -45.33293 | 38068 ft | 494 kts | 200° |
| 2026-05-07 05:52 | 16.94670 | -45.35485 | 38062 ft | 493 kts | 200° |
| 2026-05-07 05:53 | 16.88140 | -45.37671 | 38055 ft | 493 kts | 200° |
| 2026-05-07 05:53 | 16.81594 | -45.39861 | 38058 ft | 493 kts | 200° |
| 2026-05-07 05:54 | 16.75103 | -45.42031 | 38052 ft | 492 kts | 200° |
| 2026-05-07 05:54 | 16.68563 | -45.44215 | 38059 ft | 492 kts | 200° |
| 2026-05-07 05:55 | 16.62023 | -45.46398 | 38060 ft | 492 kts | 200° |
| 2026-05-07 05:55 | 16.55494 | -45.48576 | 38057 ft | 492 kts | 200° |
| 2026-05-07 05:56 | 16.48998 | -45.50741 | 38057 ft | 492 kts | 200° |
| 2026-05-07 05:56 | 16.42473 | -45.52914 | 38055 ft | 492 kts | 200° |
| 2026-05-07 05:57 | 16.35938 | -45.55089 | 38052 ft | 492 kts | 199° |
| 2026-05-07 05:57 | 16.29418 | -45.57258 | 38051 ft | 492 kts | 199° |
| 2026-05-07 05:58 | 16.22933 | -45.59414 | 38054 ft | 491 kts | 200° |
| 2026-05-07 05:58 | 16.16428 | -45.61574 | 38053 ft | 492 kts | 199° |
| 2026-05-07 05:59 | 16.09883 | -45.63746 | 38055 ft | 493 kts | 199° |
| 2026-05-07 05:59 | 16.03339 | -45.65917 | 38053 ft | 493 kts | 199° |
| 2026-05-07 06:00 | 15.96844 | -45.68070 | 38051 ft | 493 kts | 199° |
| 2026-05-07 06:00 | 15.90310 | -45.70234 | 38050 ft | 492 kts | 199° |
| 2026-05-07 06:01 | 15.83770 | -45.72399 | 38054 ft | 493 kts | 199° |
| 2026-05-07 06:01 | 15.77242 | -45.74558 | 38052 ft | 493 kts | 199° |
| 2026-05-07 06:02 | 15.70698 | -45.76721 | 38046 ft | 492 kts | 199° |
| 2026-05-07 06:02 | 15.64180 | -45.78875 | 38048 ft | 491 kts | 199° |
| 2026-05-07 06:03 | 15.57709 | -45.81011 | 38055 ft | 491 kts | 199° |
| 2026-05-07 06:03 | 15.51209 | -45.83155 | 38054 ft | 491 kts | 199° |
| 2026-05-07 06:04 | 15.44674 | -45.85309 | 38055 ft | 491 kts | 199° |
| 2026-05-07 06:04 | 15.38160 | -45.87455 | 38056 ft | 491 kts | 199° |
| 2026-05-07 06:05 | 15.31670 | -45.89592 | 38051 ft | 491 kts | 199° |
| 2026-05-07 06:05 | 15.25153 | -45.91736 | 38050 ft | 491 kts | 199° |
| 2026-05-07 06:06 | 15.18651 | -45.93874 | 38052 ft | 491 kts | 199° |
| 2026-05-07 06:06 | 15.12132 | -45.96017 | 38047 ft | 490 kts | 199° |
| 2026-05-07 06:07 | 15.05632 | -45.98151 | 38043 ft | 490 kts | 199° |
| 2026-05-07 06:07 | 14.99185 | -46.00322 | 38056 ft | 488 kts | 204° |
| 2026-05-07 06:08 | 14.92858 | -46.02926 | 38049 ft | 489 kts | 203° |
| 2026-05-07 06:08 | 14.86523 | -46.05504 | 38050 ft | 489 kts | 203° |
| 2026-05-07 06:09 | 14.80181 | -46.08099 | 38047 ft | 488 kts | 203° |
| 2026-05-07 06:09 | 14.73872 | -46.10670 | 38049 ft | 487 kts | 203° |
| 2026-05-07 06:10 | 14.67602 | -46.13229 | 38044 ft | 487 kts | 203° |
| 2026-05-07 06:10 | 14.61291 | -46.15800 | 38047 ft | 488 kts | 203° |
| 2026-05-07 06:11 | 14.54969 | -46.18375 | 38043 ft | 488 kts | 203° |
| 2026-05-07 06:11 | 14.48647 | -46.20948 | 38043 ft | 487 kts | 203° |
| 2026-05-07 06:12 | 14.42339 | -46.23514 | 38039 ft | 486 kts | 203° |
| 2026-05-07 06:12 | 14.36082 | -46.26058 | 38040 ft | 486 kts | 203° |
| 2026-05-07 06:13 | 14.29774 | -46.28621 | 38039 ft | 487 kts | 203° |
| 2026-05-07 06:13 | 14.23465 | -46.31182 | 38035 ft | 487 kts | 203° |
| 2026-05-07 06:14 | 14.17165 | -46.33739 | 38037 ft | 486 kts | 203° |
| 2026-05-07 06:14 | 14.10882 | -46.36287 | 38031 ft | 485 kts | 203° |
| 2026-05-07 06:15 | 14.04601 | -46.38833 | 38027 ft | 485 kts | 203° |
| 2026-05-07 06:15 | 13.98312 | -46.41381 | 38029 ft | 486 kts | 203° |
| 2026-05-07 06:16 | 13.92047 | -46.43917 | 38030 ft | 487 kts | 203° |
| 2026-05-07 06:16 | 13.85730 | -46.46473 | 38033 ft | 487 kts | 203° |
| 2026-05-07 06:17 | 13.79432 | -46.49019 | 38028 ft | 486 kts | 203° |
| 2026-05-07 06:17 | 13.73153 | -46.51557 | 38027 ft | 485 kts | 203° |
| 2026-05-07 06:18 | 13.66874 | -46.54093 | 38021 ft | 484 kts | 203° |
| 2026-05-07 06:18 | 13.60635 | -46.56611 | 38019 ft | 484 kts | 203° |
| 2026-05-07 06:19 | 13.54359 | -46.59143 | 38019 ft | 485 kts | 203° |
| 2026-05-07 06:19 | 13.48070 | -46.61680 | 38021 ft | 486 kts | 203° |
| 2026-05-07 06:20 | 13.41760 | -46.64222 | 38022 ft | 487 kts | 203° |
| 2026-05-07 06:20 | 13.35454 | -46.66762 | 38024 ft | 486 kts | 203° |
| 2026-05-07 06:21 | 13.29196 | -46.69281 | 38018 ft | 485 kts | 203° |
| 2026-05-07 06:21 | 13.22924 | -46.71804 | 38017 ft | 484 kts | 203° |
| 2026-05-07 06:22 | 13.16652 | -46.74326 | 38016 ft | 484 kts | 203° |
| 2026-05-07 06:22 | 13.07240 | -46.78108 | 38012 ft | 483 kts | 203° |
| 2026-05-07 06:23 | 13.01011 | -46.80609 | 38012 ft | 484 kts | 203° |
| 2026-05-07 06:23 | 12.94726 | -46.83131 | 38014 ft | 485 kts | 203° |
| 2026-05-07 06:24 | 12.88417 | -46.85662 | 38015 ft | 485 kts | 203° |
| 2026-05-07 06:24 | 12.82140 | -46.88177 | 38013 ft | 484 kts | 203° |
| 2026-05-07 06:25 | 12.75854 | -46.90696 | 38010 ft | 483 kts | 203° |
| 2026-05-07 06:25 | 12.69605 | -46.93199 | 38008 ft | 482 kts | 204° |
| 2026-05-07 06:26 | 12.63386 | -46.95688 | 38008 ft | 482 kts | 204° |
| 2026-05-07 06:26 | 12.57089 | -46.98207 | 38009 ft | 483 kts | 204° |
| 2026-05-07 06:27 | 12.50833 | -47.00708 | 38010 ft | 484 kts | 204° |
| 2026-05-07 06:27 | 12.44571 | -47.03210 | 38013 ft | 483 kts | 204° |
| 2026-05-07 06:28 | 12.38304 | -47.05713 | 38009 ft | 483 kts | 204° |
| 2026-05-07 06:28 | 12.32041 | -47.08214 | 38007 ft | 483 kts | 204° |
| 2026-05-07 06:29 | 12.25822 | -47.10695 | 38006 ft | 483 kts | 204° |
| 2026-05-07 06:29 | 12.19551 | -47.13196 | 38002 ft | 483 kts | 204° |
| 2026-05-07 06:30 | 12.13280 | -47.15695 | 38001 ft | 483 kts | 204° |
| 2026-05-07 06:30 | 12.07013 | -47.18192 | 38002 ft | 483 kts | 204° |
| 2026-05-07 06:31 | 12.01816 | -47.20261 | 37998 ft | 483 kts | 204° |
| 2026-05-07 06:31 | 11.95542 | -47.22758 | 38000 ft | 484 kts | 204° |
| 2026-05-07 06:32 | 11.89247 | -47.25263 | 38001 ft | 484 kts | 204° |
| 2026-05-07 06:32 | 11.82996 | -47.27748 | 37997 ft | 484 kts | 204° |
| 2026-05-07 06:33 | 11.76721 | -47.30242 | 37996 ft | 484 kts | 204° |
| 2026-05-07 06:33 | 11.70456 | -47.32731 | 37993 ft | 483 kts | 204° |
| 2026-05-07 06:34 | 11.64188 | -47.35219 | 37992 ft | 482 kts | 204° |
| 2026-05-07 06:34 | 11.57963 | -47.37690 | 37990 ft | 482 kts | 204° |
| 2026-05-07 06:35 | 11.51703 | -47.40173 | 37992 ft | 482 kts | 204° |
| 2026-05-07 06:35 | 11.45434 | -47.42658 | 37988 ft | 482 kts | 204° |
| 2026-05-07 06:36 | 11.39193 | -47.45131 | 37984 ft | 481 kts | 204° |
| 2026-05-07 06:36 | 11.32989 | -47.47589 | 37985 ft | 481 kts | 204° |
| 2026-05-07 06:37 | 11.26757 | -47.50056 | 37988 ft | 480 kts | 204° |
| 2026-05-07 06:37 | 11.20537 | -47.52517 | 37988 ft | 479 kts | 204° |
| 2026-05-07 06:38 | 11.14325 | -47.54974 | 37987 ft | 479 kts | 204° |
| 2026-05-07 06:38 | 11.08095 | -47.57437 | 37990 ft | 479 kts | 204° |
| 2026-05-07 06:39 | 11.01916 | -47.59879 | 37988 ft | 479 kts | 204° |
| 2026-05-07 06:39 | 10.95663 | -47.62349 | 37990 ft | 478 kts | 204° |
| 2026-05-07 06:40 | 10.89482 | -47.64789 | 37986 ft | 477 kts | 204° |
| 2026-05-07 06:40 | 10.83320 | -47.67221 | 37985 ft | 476 kts | 204° |
| 2026-05-07 06:41 | 10.77150 | -47.69655 | 37984 ft | 477 kts | 204° |
| 2026-05-07 06:41 | 10.70956 | -47.72097 | 37983 ft | 477 kts | 204° |
| 2026-05-07 06:42 | 10.64760 | -47.74539 | 37983 ft | 476 kts | 204° |
| 2026-05-07 06:42 | 10.58586 | -47.76971 | 37976 ft | 476 kts | 204° |
| 2026-05-07 06:43 | 10.52441 | -47.79391 | 37982 ft | 475 kts | 204° |
| 2026-05-07 06:43 | 10.46273 | -47.81819 | 37980 ft | 475 kts | 204° |
| 2026-05-07 06:44 | 10.40108 | -47.84244 | 37977 ft | 475 kts | 204° |
| 2026-05-07 06:44 | 10.33944 | -47.86668 | 37976 ft | 475 kts | 204° |
| 2026-05-07 06:45 | 10.27758 | -47.89100 | 37974 ft | 476 kts | 204° |
| 2026-05-07 06:45 | 10.21605 | -47.91518 | 37976 ft | 476 kts | 204° |
| 2026-05-07 06:46 | 10.15429 | -47.93944 | 37975 ft | 475 kts | 203° |
| 2026-05-07 06:46 | 10.09262 | -47.96365 | 37976 ft | 475 kts | 203° |
| 2026-05-07 06:47 | 10.03099 | -47.98783 | 37975 ft | 474 kts | 203° |
| 2026-05-07 06:47 | 9.96855 | -48.00991 | 37979 ft | 475 kts | 199° |
| 2026-05-07 06:48 | 9.90528 | -48.02977 | 37979 ft | 476 kts | 200° |
| 2026-05-07 06:48 | 9.84212 | -48.04966 | 37976 ft | 475 kts | 199° |
| 2026-05-07 06:49 | 9.77946 | -48.06933 | 37974 ft | 476 kts | 199° |
| 2026-05-07 06:49 | 9.71598 | -48.08928 | 37971 ft | 475 kts | 199° |
| 2026-05-07 06:50 | 9.65281 | -48.10911 | 37966 ft | 474 kts | 199° |
| 2026-05-07 06:50 | 9.58976 | -48.12891 | 37968 ft | 475 kts | 199° |
| 2026-05-07 06:51 | 9.52639 | -48.14879 | 37973 ft | 477 kts | 199° |
| 2026-05-07 06:51 | 9.46296 | -48.16868 | 37970 ft | 477 kts | 199° |
| 2026-05-07 06:52 | 9.40001 | -48.18842 | 37971 ft | 477 kts | 199° |
| 2026-05-07 06:52 | 9.33654 | -48.20831 | 37969 ft | 477 kts | 199° |
| 2026-05-07 06:53 | 9.27304 | -48.22820 | 37964 ft | 477 kts | 199° |
| 2026-05-07 06:53 | 9.20954 | -48.24809 | 37964 ft | 477 kts | 199° |
| 2026-05-07 06:54 | 9.14640 | -48.26785 | 37961 ft | 477 kts | 200° |
| 2026-05-07 06:54 | 9.08252 | -48.28784 | 37959 ft | 477 kts | 199° |
| 2026-05-07 06:55 | 9.01945 | -48.30757 | 37962 ft | 478 kts | 200° |
| 2026-05-07 06:55 | 8.95605 | -48.32739 | 37965 ft | 478 kts | 199° |
| 2026-05-07 06:56 | 8.89206 | -48.34740 | 37961 ft | 479 kts | 199° |
| 2026-05-07 06:56 | 8.82843 | -48.36728 | 37960 ft | 479 kts | 200° |
| 2026-05-07 06:57 | 8.76475 | -48.38717 | 37960 ft | 479 kts | 199° |
| 2026-05-07 06:57 | 8.70135 | -48.40697 | 37961 ft | 479 kts | 199° |
| 2026-05-07 06:58 | 8.63755 | -48.42688 | 37958 ft | 480 kts | 199° |
| 2026-05-07 06:58 | 8.57350 | -48.44687 | 37963 ft | 481 kts | 199° |
| 2026-05-07 06:59 | 8.50953 | -48.46682 | 37961 ft | 482 kts | 199° |
| 2026-05-07 06:59 | 8.44575 | -48.48671 | 37959 ft | 482 kts | 199° |
| 2026-05-07 07:00 | 8.38174 | -48.50666 | 37957 ft | 481 kts | 199° |
| 2026-05-07 07:00 | 8.31772 | -48.52661 | 37950 ft | 480 kts | 199° |
| 2026-05-07 07:01 | 8.25404 | -48.54644 | 37948 ft | 479 kts | 199° |
| 2026-05-07 07:01 | 8.19025 | -48.56630 | 37950 ft | 480 kts | 199° |
| 2026-05-07 07:02 | 8.12622 | -48.58623 | 37951 ft | 481 kts | 199° |
| 2026-05-07 07:02 | 8.06226 | -48.60614 | 37951 ft | 482 kts | 199° |
| 2026-05-07 07:03 | 7.99843 | -48.62599 | 37957 ft | 483 kts | 199° |
| 2026-05-07 07:03 | 7.93420 | -48.64596 | 37958 ft | 482 kts | 199° |
| 2026-05-07 07:04 | 7.87001 | -48.66592 | 37957 ft | 481 kts | 199° |
| 2026-05-07 07:04 | 7.80612 | -48.68577 | 37957 ft | 481 kts | 199° |
| 2026-05-07 07:05 | 7.74198 | -48.70570 | 37955 ft | 482 kts | 199° |
| 2026-05-07 07:05 | 7.67779 | -48.72563 | 37952 ft | 483 kts | 199° |
| 2026-05-07 07:06 | 7.61391 | -48.74546 | 37953 ft | 483 kts | 199° |
| 2026-05-07 07:06 | 7.54967 | -48.76540 | 37951 ft | 482 kts | 199° |
| 2026-05-07 07:07 | 7.48543 | -48.78533 | 37951 ft | 482 kts | 199° |
| 2026-05-07 07:07 | 7.42124 | -48.80524 | 37950 ft | 482 kts | 199° |
| 2026-05-07 07:08 | 7.35750 | -48.82501 | 37950 ft | 482 kts | 199° |
| 2026-05-07 07:08 | 7.29350 | -48.84485 | 37950 ft | 481 kts | 199° |
| 2026-05-07 07:09 | 7.22954 | -48.86467 | 37948 ft | 481 kts | 199° |
| 2026-05-07 07:09 | 7.16562 | -48.88447 | 37952 ft | 480 kts | 198° |
| 2026-05-07 07:10 | 7.10160 | -48.90430 | 37945 ft | 480 kts | 198° |
| 2026-05-07 07:10 | 7.03775 | -48.92407 | 37945 ft | 480 kts | 198° |
| 2026-05-07 07:11 | 6.97431 | -48.94370 | 37945 ft | 479 kts | 198° |
| 2026-05-07 07:11 | 6.91049 | -48.96345 | 37943 ft | 479 kts | 198° |
| 2026-05-07 07:12 | 6.84684 | -48.98314 | 37941 ft | 478 kts | 198° |
| 2026-05-07 07:12 | 6.78330 | -49.00279 | 37941 ft | 478 kts | 198° |
| 2026-05-07 07:13 | 6.71975 | -49.02244 | 37939 ft | 478 kts | 198° |
| 2026-05-07 07:13 | 6.65607 | -49.04213 | 37941 ft | 477 kts | 198° |
| 2026-05-07 07:14 | 6.59254 | -49.06176 | 37938 ft | 477 kts | 198° |
| 2026-05-07 07:14 | 6.52931 | -49.08129 | 37940 ft | 478 kts | 198° |
| 2026-05-07 07:15 | 6.46581 | -49.10090 | 37940 ft | 478 kts | 198° |
| 2026-05-07 07:15 | 6.40209 | -49.12058 | 37941 ft | 478 kts | 198° |
| 2026-05-07 07:16 | 6.33858 | -49.14018 | 37938 ft | 478 kts | 197° |
| 2026-05-07 07:16 | 6.27519 | -49.15974 | 37935 ft | 478 kts | 197° |
| 2026-05-07 07:17 | 6.21157 | -49.17937 | 37936 ft | 478 kts | 197° |
| 2026-05-07 07:17 | 6.14789 | -49.19901 | 37936 ft | 478 kts | 197° |
| 2026-05-07 07:18 | 6.08434 | -49.21861 | 37932 ft | 478 kts | 197° |
| 2026-05-07 07:18 | 6.02062 | -49.23826 | 37933 ft | 479 kts | 197° |
| 2026-05-07 07:19 | 5.95684 | -49.25791 | 37936 ft | 479 kts | 197° |
| 2026-05-07 07:19 | 5.89319 | -49.27753 | 37934 ft | 478 kts | 197° |
| 2026-05-07 07:20 | 5.82986 | -49.29704 | 37932 ft | 478 kts | 197° |
| 2026-05-07 07:20 | 5.76609 | -49.31668 | 37933 ft | 478 kts | 197° |
| 2026-05-07 07:21 | 5.70258 | -49.33624 | 37933 ft | 478 kts | 197° |
| 2026-05-07 07:21 | 5.64964 | -49.35253 | 37935 ft | 478 kts | 197° |
| 2026-05-07 07:22 | 5.58587 | -49.37216 | 37937 ft | 478 kts | 197° |
| 2026-05-07 07:22 | 5.52221 | -49.39175 | 37934 ft | 478 kts | 197° |
| 2026-05-07 07:23 | 5.45850 | -49.41135 | 37931 ft | 478 kts | 197° |
| 2026-05-07 07:23 | 5.39489 | -49.43092 | 37932 ft | 478 kts | 197° |
| 2026-05-07 07:24 | 5.33161 | -49.45038 | 37931 ft | 478 kts | 197° |
| 2026-05-07 07:24 | 5.26802 | -49.46993 | 37932 ft | 478 kts | 197° |
| 2026-05-07 07:25 | 5.17262 | -49.49925 | 37927 ft | 478 kts | 197° |
| 2026-05-07 07:26 | 5.10896 | -49.51881 | 37928 ft | 478 kts | 197° |
| 2026-05-07 07:26 | 5.04543 | -49.53833 | 37929 ft | 478 kts | 197° |
| 2026-05-07 07:27 | 4.98216 | -49.55777 | 37926 ft | 478 kts | 197° |
| 2026-05-07 07:27 | 4.91862 | -49.57728 | 37929 ft | 477 kts | 197° |
| 2026-05-07 07:28 | 4.85516 | -49.59677 | 37925 ft | 477 kts | 197° |
| 2026-05-07 07:28 | 4.79155 | -49.61629 | 37925 ft | 477 kts | 197° |
| 2026-05-07 07:29 | 4.72798 | -49.63581 | 37922 ft | 477 kts | 197° |
| 2026-05-07 07:29 | 4.66448 | -49.65542 | 37926 ft | 477 kts | 197° |
| 2026-05-07 07:30 | 4.60146 | -49.67488 | 37923 ft | 476 kts | 197° |
| 2026-05-07 07:30 | 4.53797 | -49.69448 | 37925 ft | 476 kts | 197° |
| 2026-05-07 07:31 | 4.47462 | -49.71404 | 37921 ft | 476 kts | 197° |
| 2026-05-07 07:31 | 4.41128 | -49.73358 | 37923 ft | 476 kts | 197° |
| 2026-05-07 07:32 | 4.34833 | -49.75301 | 37929 ft | 476 kts | 197° |
| 2026-05-07 07:32 | 4.28484 | -49.77259 | 37938 ft | 476 kts | 197° |
| 2026-05-07 07:33 | 4.22146 | -49.79214 | 37938 ft | 476 kts | 197° |
| 2026-05-07 07:33 | 4.15817 | -49.81165 | 37931 ft | 476 kts | 197° |
| 2026-05-07 07:34 | 4.09469 | -49.83123 | 37940 ft | 477 kts | 197° |
| 2026-05-07 07:34 | 4.03127 | -49.85078 | 37931 ft | 477 kts | 197° |
| 2026-05-07 07:35 | 3.96782 | -49.87034 | 37933 ft | 477 kts | 197° |
| 2026-05-07 07:35 | 3.90477 | -49.88976 | 37936 ft | 477 kts | 197° |
| 2026-05-07 07:36 | 3.84123 | -49.90935 | 37932 ft | 478 kts | 197° |
| 2026-05-07 07:36 | 3.77767 | -49.92893 | 37937 ft | 478 kts | 197° |
| 2026-05-07 07:37 | 3.71396 | -49.94855 | 37925 ft | 479 kts | 197° |
| 2026-05-07 07:37 | 3.65036 | -49.96814 | 37933 ft | 479 kts | 197° |
| 2026-05-07 07:38 | 3.58645 | -49.98782 | 37929 ft | 479 kts | 197° |
| 2026-05-07 07:38 | 3.52267 | -50.00746 | 37935 ft | 480 kts | 197° |
| 2026-05-07 07:39 | 3.45873 | -50.02714 | 37930 ft | 480 kts | 197° |
| 2026-05-07 07:39 | 3.39516 | -50.04671 | 37926 ft | 481 kts | 197° |
| 2026-05-07 07:40 | 3.33119 | -50.06639 | 37934 ft | 481 kts | 197° |
| 2026-05-07 07:40 | 3.26706 | -50.08613 | 37933 ft | 481 kts | 197° |
| 2026-05-07 07:41 | 3.20309 | -50.10581 | 37917 ft | 482 kts | 197° |
| 2026-05-07 07:41 | 3.13884 | -50.12558 | 37926 ft | 482 kts | 197° |
| 2026-05-07 07:42 | 3.07469 | -50.14531 | 37926 ft | 482 kts | 197° |
| 2026-05-07 07:42 | 3.01037 | -50.16509 | 37918 ft | 483 kts | 197° |
| 2026-05-07 07:43 | 2.94597 | -50.18490 | 37930 ft | 484 kts | 197° |
| 2026-05-07 07:43 | 2.88195 | -50.20458 | 37926 ft | 485 kts | 197° |
| 2026-05-07 07:44 | 2.81703 | -50.22454 | 37922 ft | 484 kts | 197° |
| 2026-05-07 07:44 | 2.75283 | -50.24428 | 37926 ft | 485 kts | 197° |
| 2026-05-07 07:45 | 2.68823 | -50.26414 | 37934 ft | 486 kts | 197° |
| 2026-05-07 07:45 | 2.62342 | -50.28406 | 37932 ft | 488 kts | 196° |
| 2026-05-07 07:46 | 2.55871 | -50.30394 | 37936 ft | 488 kts | 196° |
| 2026-05-07 07:46 | 2.49374 | -50.32390 | 37932 ft | 489 kts | 196° |
| 2026-05-07 07:47 | 2.42876 | -50.34387 | 37937 ft | 488 kts | 197° |
| 2026-05-07 07:47 | 2.36373 | -50.36385 | 37937 ft | 489 kts | 197° |
| 2026-05-07 07:48 | 2.29856 | -50.38387 | 37934 ft | 489 kts | 196° |
| 2026-05-07 07:48 | 2.23388 | -50.40374 | 37932 ft | 489 kts | 196° |
| 2026-05-07 07:49 | 2.16875 | -50.42374 | 37922 ft | 488 kts | 196° |
| 2026-05-07 07:49 | 2.10379 | -50.44369 | 37938 ft | 488 kts | 196° |
| 2026-05-07 07:50 | 2.03880 | -50.46365 | 37935 ft | 488 kts | 196° |
| 2026-05-07 07:50 | 1.97381 | -50.48360 | 37935 ft | 488 kts | 196° |
| 2026-05-07 07:51 | 1.90925 | -50.50342 | 37938 ft | 487 kts | 196° |
| 2026-05-07 07:51 | 1.84460 | -50.52327 | 37938 ft | 487 kts | 196° |
| 2026-05-07 07:52 | 1.77973 | -50.54318 | 37940 ft | 487 kts | 196° |
| 2026-05-07 07:52 | 1.71501 | -50.56305 | 37943 ft | 486 kts | 196° |
| 2026-05-07 07:53 | 1.65032 | -50.58290 | 37946 ft | 485 kts | 196° |
| 2026-05-07 07:53 | 1.58586 | -50.60269 | 37941 ft | 485 kts | 196° |
| 2026-05-07 07:54 | 1.52133 | -50.62249 | 37943 ft | 485 kts | 196° |
| 2026-05-07 07:54 | 1.45677 | -50.64230 | 37941 ft | 485 kts | 196° |
| 2026-05-07 07:55 | 1.39260 | -50.66199 | 37948 ft | 485 kts | 196° |
| 2026-05-07 07:55 | 1.32814 | -50.68177 | 37944 ft | 484 kts | 196° |
| 2026-05-07 07:56 | 1.26365 | -50.70156 | 37945 ft | 484 kts | 196° |
| 2026-05-07 07:56 | 1.19911 | -50.72136 | 37942 ft | 484 kts | 196° |
| 2026-05-07 07:57 | 1.13488 | -50.74107 | 37944 ft | 483 kts | 196° |
| 2026-05-07 07:57 | 1.07050 | -50.76082 | 37943 ft | 483 kts | 196° |
| 2026-05-07 07:58 | 1.00623 | -50.78053 | 37942 ft | 484 kts | 196° |
| 2026-05-07 07:58 | 0.94214 | -50.80019 | 37948 ft | 483 kts | 196° |
| 2026-05-07 07:59 | 0.87771 | -50.81995 | 37948 ft | 484 kts | 196° |
| 2026-05-07 07:59 | 0.81330 | -50.83971 | 37947 ft | 484 kts | 196° |
| 2026-05-07 08:00 | 0.74878 | -50.85950 | 37947 ft | 484 kts | 196° |
| 2026-05-07 08:00 | 0.68433 | -50.87926 | 37939 ft | 485 kts | 196° |
| 2026-05-07 08:01 | 0.61983 | -50.89905 | 37944 ft | 485 kts | 196° |
| 2026-05-07 08:01 | 0.55525 | -50.91885 | 37949 ft | 485 kts | 196° |
| 2026-05-07 08:02 | 0.49081 | -50.93862 | 37946 ft | 484 kts | 196° |
| 2026-05-07 08:02 | 0.42634 | -50.95838 | 37944 ft | 484 kts | 196° |
| 2026-05-07 08:03 | 0.36235 | -50.97801 | 37949 ft | 484 kts | 196° |
| 2026-05-07 08:03 | 0.29785 | -50.99779 | 37944 ft | 485 kts | 196° |
| 2026-05-07 08:04 | 0.23309 | -51.01765 | 37940 ft | 486 kts | 197° |
| 2026-05-07 08:04 | 0.16838 | -51.03749 | 37935 ft | 487 kts | 197° |
| 2026-05-07 08:05 | 0.10352 | -51.05738 | 37939 ft | 488 kts | 197° |
| 2026-05-07 08:05 | 0.03810 | -51.07486 | 37973 ft | 486 kts | 186° |
| 2026-05-07 08:06 | -0.02902 | -51.08285 | 37949 ft | 487 kts | 186° |
| 2026-05-07 08:06 | -0.09626 | -51.09094 | 37947 ft | 486 kts | 187° |
| 2026-05-07 08:07 | -0.16313 | -51.09896 | 37949 ft | 486 kts | 186° |
| 2026-05-07 08:07 | -0.23055 | -51.10704 | 37952 ft | 487 kts | 187° |
| 2026-05-07 08:08 | -0.29785 | -51.11513 | 37949 ft | 487 kts | 187° |
| 2026-05-07 08:08 | -0.36506 | -51.12319 | 37950 ft | 487 kts | 187° |
| 2026-05-07 08:09 | -0.42115 | -51.12993 | 37954 ft | 488 kts | 187° |
| 2026-05-07 08:09 | -0.49961 | -51.13934 | 37960 ft | 489 kts | 187° |
| 2026-05-07 08:10 | -0.55613 | -51.14613 | 37959 ft | 488 kts | 187° |
| 2026-05-07 08:10 | -0.62364 | -51.15423 | 37954 ft | 488 kts | 187° |
| 2026-05-07 08:11 | -0.69102 | -51.16232 | 37956 ft | 488 kts | 187° |
| 2026-05-07 08:11 | -0.75816 | -51.17037 | 37954 ft | 488 kts | 187° |
| 2026-05-07 08:12 | -0.82550 | -51.17846 | 37959 ft | 487 kts | 187° |
| 2026-05-07 08:12 | -0.89294 | -51.18655 | 37954 ft | 488 kts | 187° |
| 2026-05-07 08:13 | -0.96028 | -51.19464 | 37951 ft | 489 kts | 187° |
| 2026-05-07 08:13 | -1.02793 | -51.20276 | 37952 ft | 489 kts | 187° |
| 2026-05-07 08:14 | -1.09565 | -51.21089 | 37955 ft | 489 kts | 187° |
| 2026-05-07 08:14 | -1.16279 | -51.21895 | 37957 ft | 489 kts | 187° |
| 2026-05-07 08:15 | -1.23030 | -51.22706 | 37957 ft | 488 kts | 187° |
| 2026-05-07 08:15 | -1.29783 | -51.23516 | 37952 ft | 488 kts | 187° |
| 2026-05-07 08:16 | -1.36533 | -51.24327 | 37955 ft | 488 kts | 187° |
| 2026-05-07 08:16 | -1.43281 | -51.25137 | 37957 ft | 489 kts | 187° |
| 2026-05-07 08:17 | -1.50051 | -51.25950 | 37958 ft | 489 kts | 187° |
| 2026-05-07 08:17 | -1.56811 | -51.26762 | 37956 ft | 489 kts | 187° |
| 2026-05-07 08:18 | -1.63520 | -51.27568 | 37956 ft | 489 kts | 187° |
| 2026-05-07 08:18 | -1.70280 | -51.28380 | 37960 ft | 488 kts | 187° |
| 2026-05-07 08:19 | -1.77023 | -51.29190 | 37955 ft | 489 kts | 187° |
| 2026-05-07 08:19 | -1.83795 | -51.30004 | 37957 ft | 490 kts | 187° |
| 2026-05-07 08:20 | -1.90563 | -51.30817 | 37956 ft | 489 kts | 187° |
| 2026-05-07 08:20 | -1.97280 | -51.31624 | 37957 ft | 489 kts | 187° |
| 2026-05-07 08:21 | -2.04028 | -51.32435 | 37957 ft | 489 kts | 187° |
| 2026-05-07 08:21 | -2.10802 | -51.33249 | 37959 ft | 489 kts | 187° |
| 2026-05-07 08:22 | -2.17568 | -51.34062 | 37958 ft | 489 kts | 187° |
| 2026-05-07 08:22 | -2.24287 | -51.34869 | 37958 ft | 488 kts | 187° |
| 2026-05-07 08:23 | -2.31043 | -51.35681 | 37952 ft | 488 kts | 187° |
| 2026-05-07 08:23 | -2.37790 | -51.36493 | 37958 ft | 487 kts | 187° |
| 2026-05-07 08:24 | -2.44526 | -51.37302 | 37958 ft | 488 kts | 186° |
| 2026-05-07 08:24 | -2.51280 | -51.38114 | 37959 ft | 488 kts | 187° |
| 2026-05-07 08:25 | -2.57975 | -51.38920 | 37959 ft | 488 kts | 187° |
| 2026-05-07 08:25 | -2.64728 | -51.39732 | 37962 ft | 489 kts | 186° |
| 2026-05-07 08:26 | -2.74865 | -51.40951 | 37963 ft | 489 kts | 187° |
| 2026-05-07 08:26 | -2.81635 | -51.41765 | 37960 ft | 490 kts | 187° |
| 2026-05-07 08:27 | -2.88369 | -51.42576 | 37957 ft | 490 kts | 187° |
| 2026-05-07 08:27 | -2.95139 | -51.43390 | 38064 ft | 490 kts | 187° |
| 2026-05-07 08:28 | -2.98516 | -51.43797 | 38431 ft | 487 kts | 187° |
| 2026-05-07 08:28 | -3.01883 | -51.44202 | 38711 ft | 486 kts | 187° |
| 2026-05-07 08:28 | -3.05257 | -51.44608 | 38920 ft | 486 kts | 187° |
| 2026-05-07 08:28 | -3.08596 | -51.45010 | 39135 ft | 485 kts | 187° |
| 2026-05-07 08:29 | -3.11959 | -51.45415 | 39363 ft | 484 kts | 187° |
| 2026-05-07 08:29 | -3.15265 | -51.45812 | 39584 ft | 484 kts | 187° |
| 2026-05-07 08:29 | -3.18612 | -51.46215 | 39813 ft | 483 kts | 187° |
| 2026-05-07 08:29 | -3.21952 | -51.46618 | 39959 ft | 484 kts | 187° |
| 2026-05-07 08:30 | -3.28648 | -51.47424 | 39951 ft | 485 kts | 187° |
| 2026-05-07 08:30 | -3.35349 | -51.48230 | 39945 ft | 482 kts | 187° |
| 2026-05-07 08:31 | -3.42004 | -51.49032 | 39947 ft | 480 kts | 187° |
| 2026-05-07 08:31 | -3.48598 | -51.49826 | 39950 ft | 479 kts | 188° |
| 2026-05-07 08:32 | -3.55213 | -51.50623 | 39950 ft | 479 kts | 188° |
| 2026-05-07 08:32 | -3.61828 | -51.51420 | 39948 ft | 479 kts | 188° |
| 2026-05-07 08:33 | -3.68459 | -51.52220 | 39947 ft | 478 kts | 188° |
| 2026-05-07 08:33 | -3.75036 | -51.53012 | 39945 ft | 479 kts | 188° |
| 2026-05-07 08:34 | -3.81658 | -51.53810 | 39949 ft | 480 kts | 188° |
| 2026-05-07 08:34 | -3.88312 | -51.54612 | 39951 ft | 480 kts | 188° |
| 2026-05-07 08:35 | -3.94866 | -51.55605 | 39955 ft | 479 kts | 191° |
| 2026-05-07 08:35 | -4.01484 | -51.56720 | 39958 ft | 480 kts | 191° |
| 2026-05-07 08:36 | -4.08029 | -51.57868 | 39959 ft | 481 kts | 191° |
| 2026-05-07 08:36 | -4.14642 | -51.59006 | 39961 ft | 481 kts | 191° |
| 2026-05-07 08:37 | -4.21232 | -51.60149 | 39962 ft | 480 kts | 191° |
| 2026-05-07 08:37 | -4.27802 | -51.61286 | 39963 ft | 480 kts | 191° |
| 2026-05-07 08:38 | -4.34401 | -51.62429 | 39962 ft | 480 kts | 191° |
| 2026-05-07 08:38 | -4.40992 | -51.63571 | 39960 ft | 481 kts | 191° |
| 2026-05-07 08:39 | -4.47581 | -51.64712 | 39962 ft | 481 kts | 191° |
| 2026-05-07 08:39 | -4.54141 | -51.65849 | 39963 ft | 480 kts | 191° |
| 2026-05-07 08:40 | -4.60761 | -51.66996 | 39964 ft | 480 kts | 191° |
| 2026-05-07 08:40 | -4.67300 | -51.68130 | 39965 ft | 480 kts | 191° |
| 2026-05-07 08:41 | -4.73893 | -51.69272 | 39965 ft | 480 kts | 191° |
| 2026-05-07 08:41 | -4.80468 | -51.70413 | 39964 ft | 479 kts | 191° |
| 2026-05-07 08:42 | -4.87044 | -51.71553 | 39962 ft | 479 kts | 191° |
| 2026-05-07 08:42 | -4.93612 | -51.72693 | 39966 ft | 479 kts | 191° |
| 2026-05-07 08:43 | -5.00184 | -51.73833 | 39966 ft | 479 kts | 191° |
| 2026-05-07 08:43 | -5.06716 | -51.74967 | 39966 ft | 479 kts | 191° |
| 2026-05-07 08:44 | -5.13307 | -51.76111 | 39965 ft | 479 kts | 191° |
| 2026-05-07 08:44 | -5.19861 | -51.77248 | 39964 ft | 478 kts | 191° |
| 2026-05-07 08:45 | -5.26377 | -51.78380 | 39964 ft | 478 kts | 191° |
| 2026-05-07 08:45 | -5.32936 | -51.79519 | 39966 ft | 477 kts | 191° |
| 2026-05-07 08:46 | -5.39486 | -51.80657 | 39966 ft | 477 kts | 191° |
| 2026-05-07 08:46 | -5.46022 | -51.81793 | 39967 ft | 476 kts | 191° |
| 2026-05-07 08:47 | -5.52565 | -51.82930 | 39966 ft | 476 kts | 191° |
| 2026-05-07 08:47 | -5.59113 | -51.84068 | 39966 ft | 477 kts | 191° |
| 2026-05-07 08:48 | -5.65621 | -51.85200 | 39970 ft | 478 kts | 191° |
| 2026-05-07 08:48 | -5.72187 | -51.86342 | 39976 ft | 478 kts | 191° |
| 2026-05-07 08:49 | -5.78741 | -51.87482 | 39975 ft | 477 kts | 191° |
| 2026-05-07 08:49 | -5.85288 | -51.88621 | 39973 ft | 477 kts | 191° |
| 2026-05-07 08:50 | -5.91797 | -51.89754 | 39975 ft | 477 kts | 191° |
| 2026-05-07 08:50 | -5.98336 | -51.90892 | 39973 ft | 476 kts | 191° |
| 2026-05-07 08:51 | -6.04868 | -51.92030 | 39980 ft | 476 kts | 191° |
| 2026-05-07 08:51 | -6.11406 | -51.93168 | 39977 ft | 476 kts | 191° |
| 2026-05-07 08:52 | -6.17940 | -51.94307 | 39976 ft | 476 kts | 191° |
| 2026-05-07 08:52 | -6.24436 | -51.95439 | 39975 ft | 476 kts | 191° |
| 2026-05-07 08:53 | -6.30972 | -51.96578 | 39970 ft | 476 kts | 191° |
| 2026-05-07 08:53 | -6.37496 | -51.97716 | 39971 ft | 476 kts | 191° |
| 2026-05-07 08:54 | -6.44026 | -51.98854 | 39973 ft | 476 kts | 191° |
| 2026-05-07 08:54 | -6.50516 | -51.99986 | 39976 ft | 476 kts | 191° |
| 2026-05-07 08:55 | -6.57055 | -52.01127 | 39972 ft | 477 kts | 191° |
| 2026-05-07 08:55 | -6.63591 | -52.02268 | 39974 ft | 476 kts | 191° |
| 2026-05-07 08:56 | -6.70107 | -52.03405 | 39970 ft | 475 kts | 191° |
| 2026-05-07 08:56 | -6.76616 | -52.04542 | 39969 ft | 474 kts | 191° |
| 2026-05-07 08:57 | -6.83085 | -52.05672 | 39972 ft | 474 kts | 192° |
| 2026-05-07 08:57 | -6.89604 | -52.06811 | 39971 ft | 474 kts | 192° |
| 2026-05-07 08:58 | -6.95001 | -52.07754 | 39970 ft | 473 kts | 192° |
| 2026-05-07 08:58 | -7.01484 | -52.08888 | 39971 ft | 473 kts | 192° |
| 2026-05-07 08:59 | -7.07975 | -52.10022 | 39970 ft | 473 kts | 192° |
| 2026-05-07 08:59 | -7.14480 | -52.11160 | 39974 ft | 473 kts | 192° |
| 2026-05-07 09:00 | -7.20958 | -52.12293 | 39977 ft | 472 kts | 192° |
| 2026-05-07 09:00 | -7.27384 | -52.13418 | 39975 ft | 471 kts | 192° |
| 2026-05-07 09:01 | -7.33847 | -52.14550 | 39979 ft | 471 kts | 192° |
| 2026-05-07 09:01 | -7.40314 | -52.15682 | 39976 ft | 471 kts | 192° |
| 2026-05-07 09:02 | -7.46781 | -52.16815 | 39981 ft | 471 kts | 192° |
| 2026-05-07 09:02 | -7.53207 | -52.17941 | 39982 ft | 471 kts | 192° |
| 2026-05-07 09:03 | -7.59666 | -52.19073 | 39985 ft | 471 kts | 192° |
| 2026-05-07 09:03 | -7.66123 | -52.20205 | 39986 ft | 470 kts | 192° |
| 2026-05-07 09:04 | -7.72571 | -52.21336 | 39987 ft | 470 kts | 192° |
| 2026-05-07 09:04 | -7.78984 | -52.22461 | 39987 ft | 470 kts | 192° |
| 2026-05-07 09:05 | -7.85431 | -52.23592 | 39989 ft | 470 kts | 192° |
| 2026-05-07 09:05 | -7.91887 | -52.24725 | 39988 ft | 470 kts | 192° |
| 2026-05-07 09:06 | -7.98334 | -52.25858 | 39992 ft | 470 kts | 192° |
| 2026-05-07 09:06 | -8.04782 | -52.26990 | 39990 ft | 470 kts | 192° |